Observation data for Caprock Canyons on 04/22/2019      Previous  Date  Next       Current Mesonet Observations  Soil Data  Daily Summary Page  Observations in Plain Language
KQU1 220500Z 22011KT 22/01 A2985 RMK A01 T02190011  RH  025%=      5-min Rain = 0
KQU1 220501Z 22011KT 22/01 A2985 RMK A01 T02190011  RH  025%=      5-min Rain = 0
KQU1 220502Z 22011KT 22/01 A2985 RMK A01 T02190011  RH  025%=      5-min Rain = 0
KQU1 220503Z 22011KT 22/01 A2985 RMK A01 T02190012  RH  025%=      5-min Rain = 0
KQU1 220504Z 22011KT 22/01 A2985 RMK A01 T02180012  RH  025%=      5-min Rain = 0
KQU1 220505Z 23011KT 22/01 A2985 RMK A01 T02180012  RH  025%=      5-min Rain = 0
KQU1 220506Z 23011KT 22/01 A2985 RMK A01 T02170012  RH  026%=      5-min Rain = 0
KQU1 220507Z 23011KT 22/01 A2985 RMK A01 T02160013  RH  026%=      5-min Rain = 0
KQU1 220508Z 23011KT 22/01 A2985 RMK A01 T02160012  RH  026%=      5-min Rain = 0
KQU1 220509Z 23011KT 22/01 A2985 RMK A01 T02160013  RH  026%=      5-min Rain = 0
KQU1 220510Z 23011KT 22/01 A2985 RMK A01 T02150013  RH  026%=      5-min Rain = 0
KQU1 220511Z 23012KT 22/01 A2985 RMK A01 T02150013  RH  026%=      5-min Rain = 0
KQU1 220512Z 23011KT 22/01 A2985 RMK A01 T02150013  RH  026%=      5-min Rain = 0
KQU1 220513Z 23011KT 22/01 A2985 RMK A01 T02150013  RH  026%=      5-min Rain = 0
KQU1 220514Z 23012KT 21/01 A2985 RMK A01 T02140013  RH  026%=      5-min Rain = 0
KQU1 220515Z 23012KT 21/01 A2985 RMK A01 T02140013  RH  026%=      5-min Rain = 0
KQU1 220516Z 23011KT 21/01 A2985 RMK A01 T02140013  RH  026%=      5-min Rain = 0
KQU1 220517Z 23012KT 22/01 A2985 RMK A01 T02150013  RH  026%=      5-min Rain = 0
KQU1 220518Z 22011KT 22/01 A2985 RMK A01 T02150013  RH  026%=      5-min Rain = 0
KQU1 220519Z 22011KT 21/01 A2985 RMK A01 T02140013  RH  026%=      5-min Rain = 0
KQU1 220520Z 23012KT 22/01 A2985 RMK A01 T02150013  RH  026%=      5-min Rain = 0
KQU1 220521Z 23012KT 22/01 A2985 RMK A01 T02150013  RH  026%=      5-min Rain = 0
KQU1 220522Z 22012KT 22/01 A2985 RMK A01 T02150013  RH  026%=      5-min Rain = 0
KQU1 220523Z 23011KT 22/01 A2985 RMK A01 T02150014  RH  026%=      5-min Rain = 0
KQU1 220524Z 23012KT 22/01 A2985 RMK A01 T02150014  RH  026%=      5-min Rain = 0
KQU1 220525Z 23012KT 22/01 A2985 RMK A01 T02150014  RH  026%=      5-min Rain = 0
KQU1 220526Z 23012KT 22/01 A2985 RMK A01 T02150013  RH  026%=      5-min Rain = 0
KQU1 220527Z 23012KT 22/01 A2985 RMK A01 T02150014  RH  026%=      5-min Rain = 0
KQU1 220528Z 23012KT 22/01 A2985 RMK A01 T02150014  RH  026%=      5-min Rain = 0
KQU1 220529Z 23012KT 22/01 A2985 RMK A01 T02150014  RH  026%=      5-min Rain = 0
KQU1 220530Z 23012KT 22/01 A2985 RMK A01 T02150014  RH  026%=      5-min Rain = 0
KQU1 220531Z 23012KT 21/01 A2985 RMK A01 T02140014  RH  026%=      5-min Rain = 0
KQU1 220532Z 23012KT 21/01 A2985 RMK A01 T02140014  RH  027%=      5-min Rain = 0
KQU1 220533Z 23012KT 21/01 A2985 RMK A01 T02140014  RH  027%=      5-min Rain = 0
KQU1 220534Z 23012KT 21/01 A2985 RMK A01 T02140014  RH  027%=      5-min Rain = 0
KQU1 220535Z 22012KT 21/01 A2985 RMK A01 T02140014  RH  027%=      5-min Rain = 0
KQU1 220536Z 22013KT 21/01 A2985 RMK A01 T02140014  RH  026%=      5-min Rain = 0
KQU1 220537Z 23013KT 22/01 A2985 RMK A01 T02150014  RH  026%=      5-min Rain = 0
KQU1 220538Z 23012KT 21/01 A2985 RMK A01 T02140014  RH  027%=      5-min Rain = 0
KQU1 220539Z 23012KT 21/01 A2985 RMK A01 T02140014  RH  027%=      5-min Rain = 0
KQU1 220540Z 23012KT 21/01 A2985 RMK A01 T02130014  RH  027%=      5-min Rain = 0
KQU1 220541Z 23012KT 21/01 A2985 RMK A01 T02130014  RH  027%=      5-min Rain = 0
KQU1 220542Z 23012KT 21/01 A2985 RMK A01 T02120014  RH  027%=      5-min Rain = 0
KQU1 220543Z 22013KT 21/01 A2985 RMK A01 T02120014  RH  027%=      5-min Rain = 0
KQU1 220544Z 22012KT 21/01 A2985 RMK A01 T02130014  RH  027%=      5-min Rain = 0
KQU1 220545Z 22012KT 21/01 A2985 RMK A01 T02130014  RH  027%=      5-min Rain = 0
KQU1 220546Z 22012KT 21/01 A2985 RMK A01 T02120014  RH  027%=      5-min Rain = 0
KQU1 220547Z 22012KT 21/01 A2985 RMK A01 T02110014  RH  027%=      5-min Rain = 0
KQU1 220548Z 22013KT 21/01 A2985 RMK A01 T02110014  RH  027%=      5-min Rain = 0
KQU1 220549Z 22012KT 21/01 A2985 RMK A01 T02100014  RH  027%=      5-min Rain = 0
KQU1 220550Z 22012KT 21/01 A2985 RMK A01 T02100014  RH  027%=      5-min Rain = 0
KQU1 220551Z 22013KT 21/01 A2985 RMK A01 T02100013  RH  027%=      5-min Rain = 0
KQU1 220552Z 22012KT 21/01 A2985 RMK A01 T02110013  RH  027%=      5-min Rain = 0
KQU1 220553Z 22011KT 21/01 A2985 RMK A01 T02100014  RH  027%=      5-min Rain = 0
KQU1 220554Z 22011KT 21/01 A2985 RMK A01 T02090014  RH  027%=      5-min Rain = 0
KQU1 220555Z 22011KT 21/01 A2985 RMK A01 T02070014  RH  028%=      5-min Rain = 0
KQU1 220556Z 22012KT 21/02 A2985 RMK A01 T02060015  RH  028%=      5-min Rain = 0
KQU1 220557Z 21011KT 20/02 A2985 RMK A01 T02040015  RH  028%=      5-min Rain = 0
KQU1 220558Z 21012KT 20/02 A2985 RMK A01 T02030015  RH  029%=      5-min Rain = 0
KQU1 220559Z 21012KT 20/02 A2985 RMK A01 T02020015  RH  029%=      5-min Rain = 0
KQU1 220600Z 21012KT 20/02 A2985 RMK A01 T02020015  RH  029%=      5-min Rain = 0
KQU1 220601Z 20011KT 20/02 A2986 RMK A01 T02000015  RH  029%=      5-min Rain = 0
KQU1 220602Z 19011KT 20/02 A2986 RMK A01 T01970017  RH  030%=      5-min Rain = 0
KQU1 220603Z 18013KT 19/02 A2986 RMK A01 T01920018  RH  031%=      5-min Rain = 0
KQU1 220604Z 19014KT 19/02 A2986 RMK A01 T01880018  RH  032%=      5-min Rain = 0
KQU1 220605Z 20013KT 19/02 A2986 RMK A01 T01870018  RH  032%=      5-min Rain = 0
KQU1 220606Z 20014KT 19/02 A2986 RMK A01 T01870017  RH  032%=      5-min Rain = 0
KQU1 220607Z 20014KT 19/02 A2986 RMK A01 T01870017  RH  032%=      5-min Rain = 0
KQU1 220608Z 20014KT 19/02 A2986 RMK A01 T01880017  RH  032%=      5-min Rain = 0
KQU1 220609Z 21015KT 19/02 A2986 RMK A01 T01890017  RH  032%=      5-min Rain = 0
KQU1 220610Z 21014KT 19/02 A2986 RMK A01 T01890017  RH  032%=      5-min Rain = 0
KQU1 220611Z 21014KT 19/02 A2986 RMK A01 T01890016  RH  032%=      5-min Rain = 0
KQU1 220612Z 21014KT 19/02 A2986 RMK A01 T01890017  RH  032%=      5-min Rain = 0
KQU1 220613Z 21014KT 19/02 A2986 RMK A01 T01890016  RH  031%=      5-min Rain = 0
KQU1 220614Z 22014KT 19/02 A2986 RMK A01 T01900016  RH  031%=      5-min Rain = 0
KQU1 220615Z 22014KT 19/02 A2986 RMK A01 T01910016  RH  031%=      5-min Rain = 0
KQU1 220616Z 22014KT 19/02 A2986 RMK A01 T01910016  RH  031%=      5-min Rain = 0
KQU1 220617Z 22014KT 19/02 A2986 RMK A01 T01920016  RH  031%=      5-min Rain = 0
KQU1 220618Z 22014KT 19/02 A2986 RMK A01 T01920016  RH  031%=      5-min Rain = 0
KQU1 220619Z 22014KT 19/02 A2986 RMK A01 T01920016  RH  031%=      5-min Rain = 0
KQU1 220620Z 22014KT 19/02 A2986 RMK A01 T01930016  RH  031%=      5-min Rain = 0
KQU1 220621Z 22014KT 19/02 A2986 RMK A01 T01940016  RH  030%=      5-min Rain = 0
KQU1 220622Z 22014KT 20/02 A2986 RMK A01 T01950016  RH  030%=      5-min Rain = 0
KQU1 220623Z 22014KT 20/02 A2986 RMK A01 T01960016  RH  030%=      5-min Rain = 0
KQU1 220624Z 22014KT 20/02 A2986 RMK A01 T01970016  RH  030%=      5-min Rain = 0
KQU1 220625Z 22014KT 20/02 A2986 RMK A01 T01970016  RH  030%=      5-min Rain = 0
KQU1 220626Z 22014KT 20/02 A2986 RMK A01 T01980016  RH  030%=      5-min Rain = 0
KQU1 220627Z 21014KT 20/02 A2986 RMK A01 T01980016  RH  030%=      5-min Rain = 0
KQU1 220628Z 21014KT 20/02 A2986 RMK A01 T01980016  RH  030%=      5-min Rain = 0
KQU1 220629Z 21014KT 20/02 A2986 RMK A01 T01980016  RH  030%=      5-min Rain = 0
KQU1 220630Z 21015KT 20/02 A2986 RMK A01 T01980017  RH  030%=      5-min Rain = 0
KQU1 220631Z 21016KT 20/02 A2986 RMK A01 T01980017  RH  030%=      5-min Rain = 0
KQU1 220632Z 21014KT 20/02 A2986 RMK A01 T01980017  RH  030%=      5-min Rain = 0
KQU1 220633Z 20013KT 20/02 A2986 RMK A01 T01970018  RH  030%=      5-min Rain = 0
KQU1 220634Z 21014KT 20/02 A2986 RMK A01 T01950018  RH  031%=      5-min Rain = 0
KQU1 220635Z 21014KT 20/02 A2986 RMK A01 T01950019  RH  031%=      5-min Rain = 0
KQU1 220636Z 21014KT 19/02 A2986 RMK A01 T01940019  RH  031%=      5-min Rain = 0
KQU1 220637Z 21014KT 19/02 A2986 RMK A01 T01940019  RH  031%=      5-min Rain = 0
KQU1 220638Z 21014KT 19/02 A2986 RMK A01 T01940020  RH  031%=      5-min Rain = 0
KQU1 220639Z 22015KT 19/02 A2986 RMK A01 T01940020  RH  031%=      5-min Rain = 0
KQU1 220640Z 22015KT 19/02 A2986 RMK A01 T01940020  RH  031%=      5-min Rain = 0
KQU1 220641Z 22016KT 20/02 A2986 RMK A01 T01950020  RH  031%=      5-min Rain = 0
KQU1 220642Z 22016KT 20/02 A2986 RMK A01 T01970021  RH  031%=      5-min Rain = 0
KQU1 220643Z 22015KT 20/02 A2986 RMK A01 T01970021  RH  031%=      5-min Rain = 0
KQU1 220644Z 22015KT 20/02 A2986 RMK A01 T01970021  RH  031%=      5-min Rain = 0
KQU1 220645Z 22015KT 20/02 A2986 RMK A01 T01970021  RH  031%=      5-min Rain = 0
KQU1 220646Z 22015KT 20/02 A2986 RMK A01 T01970021  RH  031%=      5-min Rain = 0
KQU1 220647Z 22015KT 20/02 A2986 RMK A01 T01970024  RH  032%=      5-min Rain = 0
KQU1 220648Z 22016KT 20/03 A2986 RMK A01 T01980029  RH  033%=      5-min Rain = 0
KQU1 220649Z 22017KT 20/03 A2986 RMK A01 T02000034  RH  033%=      5-min Rain = 0
KQU1 220650Z 22018KT 20/04 A2986 RMK A01 T02030038  RH  034%=      5-min Rain = 0
KQU1 220651Z 22018KT 20/04 A2986 RMK A01 T02040039  RH  034%=      5-min Rain = 0
KQU1 220652Z 22017KT 21/04 A2986 RMK A01 T02060040  RH  034%=      5-min Rain = 0
KQU1 220653Z 22017KT 21/04 A2986 RMK A01 T02060041  RH  034%=      5-min Rain = 0
KQU1 220654Z 21015KT 21/04 A2986 RMK A01 T02060041  RH  034%=      5-min Rain = 0
KQU1 220655Z 21017KT 21/04 A2986 RMK A01 T02060044  RH  034%=      5-min Rain = 0
KQU1 220656Z 21016KT 21/05 A2986 RMK A01 T02060046  RH  035%=      5-min Rain = 0
KQU1 220657Z 21019KT 21/05 A2985 RMK A01 T02070050  RH  036%=      5-min Rain = 0
KQU1 220658Z 21016KT 21/05 A2986 RMK A01 T02070048  RH  035%=      5-min Rain = 0
KQU1 220659Z 21015KT 21/05 A2986 RMK A01 T02060048  RH  036%=      5-min Rain = 0
KQU1 220700Z 21016KT 20/05 A2986 RMK A01 T02040048  RH  036%=      5-min Rain = 0
KQU1 220701Z 21015KT 20/05 A2986 RMK A01 T02030050  RH  037%=      5-min Rain = 0
KQU1 220702Z 22016KT 20/05 A2986 RMK A01 T02020051  RH  037%=      5-min Rain = 0
KQU1 220703Z 22018KT 20/05 A2985 RMK A01 T02010053  RH  038%=      5-min Rain = 0
KQU1 220704Z 22018KT 20/06 A2985 RMK A01 T02020056  RH  038%=      5-min Rain = 0
KQU1 220705Z 22017KT 20/06 A2985 RMK A01 T02020056  RH  038%=      5-min Rain = 0
KQU1 220706Z 22017KT 20/06 A2985 RMK A01 T02020057  RH  039%=      5-min Rain = 0
KQU1 220707Z 22019KT 20/06 A2985 RMK A01 T02020060  RH  039%=      5-min Rain = 0
KQU1 220708Z 22017KT 20/06 A2985 RMK A01 T02030061  RH  040%=      5-min Rain = 0
KQU1 220709Z 22018KT 20/06 A2985 RMK A01 T02020062  RH  040%=      5-min Rain = 0
KQU1 220710Z 22018KT 20/06 A2985 RMK A01 T02020064  RH  040%=      5-min Rain = 0
KQU1 220711Z 22019KT 20/07 A2985 RMK A01 T02020066  RH  041%=      5-min Rain = 0
KQU1 220712Z 22018KT 20/07 A2985 RMK A01 T02030067  RH  041%=      5-min Rain = 0
KQU1 220713Z 22017KT 20/07 A2985 RMK A01 T02020068  RH  042%=      5-min Rain = 0
KQU1 220714Z 22017KT 20/07 A2985 RMK A01 T02010069  RH  042%=      5-min Rain = 0
KQU1 220715Z 22018KT 20/07 A2985 RMK A01 T02010072  RH  043%=      5-min Rain = 0
KQU1 220716Z 22018KT 20/07 A2985 RMK A01 T02010073  RH  043%=      5-min Rain = 0
KQU1 220717Z 22017KT 20/07 A2985 RMK A01 T02010074  RH  044%=      5-min Rain = 0
KQU1 220718Z 22016KT 20/07 A2985 RMK A01 T02010074  RH  044%=      5-min Rain = 0
KQU1 220719Z 22016G21KT 20/08 A2985 RMK A01 T02010075  RH  044%=      5-min Rain = 0
KQU1 220720Z 22016KT 20/08 A2985 RMK A01 T02000076  RH  045%=      5-min Rain = 0
KQU1 220721Z 22018KT 20/08 A2985 RMK A01 T02000077  RH  045%=      5-min Rain = 0
KQU1 220722Z 22017KT 20/08 A2985 RMK A01 T02000077  RH  045%=      5-min Rain = 0
KQU1 220723Z 22018KT 20/08 A2985 RMK A01 T02000078  RH  045%=      5-min Rain = 0
KQU1 220724Z 22017KT 20/08 A2985 RMK A01 T02000079  RH  046%=      5-min Rain = 0
KQU1 220725Z 21018KT 20/08 A2985 RMK A01 T02010080  RH  046%=      5-min Rain = 0
KQU1 220726Z 22017KT 20/08 A2985 RMK A01 T02010080  RH  046%=      5-min Rain = 0
KQU1 220727Z 22018KT 20/08 A2985 RMK A01 T02010081  RH  046%=      5-min Rain = 0
KQU1 220728Z 22017KT 20/08 A2985 RMK A01 T02000081  RH  046%=      5-min Rain = 0
KQU1 220729Z 21020KT 20/08 A2985 RMK A01 T02000082  RH  047%=      5-min Rain = 0
KQU1 220730Z 22018KT 20/08 A2985 RMK A01 T02000083  RH  047%=      5-min Rain = 0
KQU1 220731Z 22016KT 20/08 A2985 RMK A01 T02000084  RH  047%=      5-min Rain = 0
KQU1 220732Z 22018KT 20/09 A2985 RMK A01 T02000085  RH  047%=      5-min Rain = 0
KQU1 220733Z 22016KT 20/09 A2985 RMK A01 T02000085  RH  047%=      5-min Rain = 0
KQU1 220734Z 22019KT 20/09 A2985 RMK A01 T02010086  RH  047%=      5-min Rain = 0
KQU1 220735Z 22019KT 20/09 A2985 RMK A01 T02010086  RH  047%=      5-min Rain = 0
KQU1 220736Z 22017G22KT 20/09 A2985 RMK A01 T02010086  RH  047%=      5-min Rain = 0
KQU1 220737Z 22019KT 20/09 A2985 RMK A01 T02010086  RH  048%=      5-min Rain = 0
KQU1 220738Z 22018KT 20/09 A2985 RMK A01 T02010087  RH  048%=      5-min Rain = 0
KQU1 220739Z 22017KT 20/09 A2985 RMK A01 T02010087  RH  048%=      5-min Rain = 0
KQU1 220740Z 22017KT 20/09 A2985 RMK A01 T02000088  RH  048%=      5-min Rain = 0
KQU1 220741Z 22017G22KT 20/09 A2985 RMK A01 T02000089  RH  049%=      5-min Rain = 0
KQU1 220742Z 22016KT 20/09 A2985 RMK A01 T01990089  RH  049%=      5-min Rain = 0
KQU1 220743Z 22015KT 20/09 A2985 RMK A01 T01990090  RH  049%=      5-min Rain = 0
KQU1 220744Z 22016KT 20/09 A2985 RMK A01 T01980090  RH  050%=      5-min Rain = 0
KQU1 220745Z 22017KT 20/09 A2985 RMK A01 T01980091  RH  050%=      5-min Rain = 0
KQU1 220746Z 22018KT 20/09 A2985 RMK A01 T01990092  RH  050%=      5-min Rain = 0
KQU1 220747Z 22019KT 20/09 A2985 RMK A01 T02000092  RH  050%=      5-min Rain = 0
KQU1 220748Z 22018KT 20/09 A2985 RMK A01 T02000092  RH  050%=      5-min Rain = 0
KQU1 220749Z 21016KT 20/09 A2985 RMK A01 T01990093  RH  050%=      5-min Rain = 0
KQU1 220750Z 21017KT 20/09 A2985 RMK A01 T01990094  RH  051%=      5-min Rain = 0
KQU1 220751Z 21017KT 20/10 A2985 RMK A01 T01980095  RH  051%=      5-min Rain = 0
KQU1 220752Z 22018KT 20/10 A2985 RMK A01 T01980095  RH  051%=      5-min Rain = 0
KQU1 220753Z 22017KT 20/10 A2985 RMK A01 T01990095  RH  051%=      5-min Rain = 0
KQU1 220754Z 21015KT 20/10 A2985 RMK A01 T01980095  RH  051%=      5-min Rain = 0
KQU1 220755Z 21016KT 20/10 A2985 RMK A01 T01970095  RH  052%=      5-min Rain = 0
KQU1 220756Z 21017G23KT 20/10 A2985 RMK A01 T01970096  RH  052%=      5-min Rain = 0
KQU1 220757Z 21018KT 20/10 A2985 RMK A01 T01970096  RH  052%=      5-min Rain = 0
KQU1 220758Z 21016KT 20/10 A2985 RMK A01 T01960096  RH  052%=      5-min Rain = 0
KQU1 220759Z 21017KT 20/10 A2985 RMK A01 T01960096  RH  053%=      5-min Rain = 0
KQU1 220800Z 21018KT 20/10 A2985 RMK A01 T01950097  RH  053%=      5-min Rain = 0
KQU1 220801Z 21018KT 20/10 A2985 RMK A01 T01950097  RH  053%=      5-min Rain = 0
KQU1 220802Z 21020KT 20/10 A2985 RMK A01 T01960097  RH  053%=      5-min Rain = 0
KQU1 220803Z 21019KT 20/10 A2985 RMK A01 T01960097  RH  053%=      5-min Rain = 0
KQU1 220804Z 21018KT 20/10 A2985 RMK A01 T01960097  RH  053%=      5-min Rain = 0
KQU1 220805Z 21017KT 20/10 A2985 RMK A01 T01950097  RH  053%=      5-min Rain = 0
KQU1 220806Z 21018KT 19/10 A2985 RMK A01 T01940097  RH  054%=      5-min Rain = 0
KQU1 220807Z 21018KT 19/10 A2985 RMK A01 T01930098  RH  054%=      5-min Rain = 0
KQU1 220808Z 21018KT 19/10 A2985 RMK A01 T01930098  RH  054%=      5-min Rain = 0
KQU1 220809Z 21019KT 19/10 A2985 RMK A01 T01930098  RH  054%=      5-min Rain = 0
KQU1 220810Z 21017KT 19/10 A2985 RMK A01 T01920098  RH  055%=      5-min Rain = 0
KQU1 220811Z 21018KT 19/10 A2985 RMK A01 T01920099  RH  055%=      5-min Rain = 0
KQU1 220812Z 21019KT 19/10 A2985 RMK A01 T01920099  RH  055%=      5-min Rain = 0
KQU1 220813Z 21018KT 19/10 A2985 RMK A01 T01920099  RH  055%=      5-min Rain = 0
KQU1 220814Z 21020KT 19/10 A2985 RMK A01 T01920099  RH  055%=      5-min Rain = 0
KQU1 220815Z 21019KT 19/10 A2985 RMK A01 T01920099  RH  055%=      5-min Rain = 0
KQU1 220816Z 21020KT 19/10 A2985 RMK A01 T01920099  RH  055%=      5-min Rain = 0
KQU1 220817Z 21019KT 19/10 A2985 RMK A01 T01910100  RH  055%=      5-min Rain = 0
KQU1 220818Z 21017KT 19/10 A2985 RMK A01 T01910100  RH  055%=      5-min Rain = 0
KQU1 220819Z 21019KT 19/10 A2985 RMK A01 T01900100  RH  056%=      5-min Rain = 0
KQU1 220820Z 22019KT 19/10 A2985 RMK A01 T01900100  RH  056%=      5-min Rain = 0
KQU1 220821Z 21017G23KT 19/10 A2985 RMK A01 T01900100  RH  056%=      5-min Rain = 0
KQU1 220822Z 21018KT 19/10 A2985 RMK A01 T01900100  RH  056%=      5-min Rain = 0
KQU1 220823Z 22019KT 19/10 A2985 RMK A01 T01900100  RH  056%=      5-min Rain = 0
KQU1 220824Z 22017KT 19/10 A2985 RMK A01 T01900101  RH  056%=      5-min Rain = 0
KQU1 220825Z 22016KT 19/10 A2985 RMK A01 T01890101  RH  056%=      5-min Rain = 0
KQU1 220826Z 22018KT 19/10 A2986 RMK A01 T01890102  RH  057%=      5-min Rain = 0
KQU1 220827Z 22019KT 19/10 A2986 RMK A01 T01890102  RH  057%=      5-min Rain = 0
KQU1 220828Z 22018KT 19/10 A2986 RMK A01 T01890102  RH  057%=      5-min Rain = 0
KQU1 220829Z 22019KT 19/10 A2986 RMK A01 T01900103  RH  057%=      5-min Rain = 0
KQU1 220830Z 22020KT 19/10 A2986 RMK A01 T01900103  RH  057%=      5-min Rain = 0
KQU1 220831Z 21018G23KT 19/10 A2986 RMK A01 T01910103  RH  057%=      5-min Rain = 0
KQU1 220832Z 22019KT 19/10 A2986 RMK A01 T01900103  RH  057%=      5-min Rain = 0
KQU1 220833Z 22017KT 19/10 A2986 RMK A01 T01900103  RH  057%=      5-min Rain = 0
KQU1 220834Z 22018KT 19/10 A2986 RMK A01 T01890103  RH  057%=      5-min Rain = 0
KQU1 220835Z 22017KT 19/10 A2986 RMK A01 T01880103  RH  058%=      5-min Rain = 0
KQU1 220836Z 22017KT 19/10 A2986 RMK A01 T01880103  RH  058%=      5-min Rain = 0
KQU1 220837Z 22019KT 19/10 A2986 RMK A01 T01880104  RH  058%=      5-min Rain = 0
KQU1 220838Z 22017KT 19/10 A2986 RMK A01 T01870104  RH  058%=      5-min Rain = 0
KQU1 220839Z 22018KT 19/10 A2986 RMK A01 T01870104  RH  058%=      5-min Rain = 0
KQU1 220840Z 22019KT 19/10 A2986 RMK A01 T01880104  RH  058%=      5-min Rain = 0
KQU1 220841Z 22017KT 19/10 A2986 RMK A01 T01870104  RH  058%=      5-min Rain = 0
KQU1 220842Z 22018KT 19/11 A2986 RMK A01 T01870105  RH  059%=      5-min Rain = 0
KQU1 220843Z 22020KT 19/11 A2986 RMK A01 T01870105  RH  059%=      5-min Rain = 0
KQU1 220844Z 22018KT 19/11 A2986 RMK A01 T01870105  RH  059%=      5-min Rain = 0
KQU1 220845Z 22019KT 19/11 A2986 RMK A01 T01870106  RH  059%=      5-min Rain = 0
KQU1 220846Z 22020KT 19/11 A2986 RMK A01 T01870106  RH  059%=      5-min Rain = 0
KQU1 220847Z 22019KT 19/11 A2986 RMK A01 T01870107  RH  059%=      5-min Rain = 0
KQU1 220848Z 22020KT 19/11 A2986 RMK A01 T01880107  RH  059%=      5-min Rain = 0
KQU1 220849Z 22018KT 19/11 A2986 RMK A01 T01880107  RH  059%=      5-min Rain = 0
KQU1 220850Z 22021KT 19/11 A2985 RMK A01 T01880108  RH  060%=      5-min Rain = 0
KQU1 220851Z 22019KT 19/11 A2985 RMK A01 T01880108  RH  060%=      5-min Rain = 0
KQU1 220852Z 22021KT 19/11 A2985 RMK A01 T01880108  RH  060%=      5-min Rain = 0
KQU1 220853Z 22018KT 19/11 A2985 RMK A01 T01880108  RH  060%=      5-min Rain = 0
KQU1 220854Z 22021KT 19/11 A2985 RMK A01 T01870109  RH  060%=      5-min Rain = 0
KQU1 220855Z 22020KT 19/11 A2985 RMK A01 T01880109  RH  060%=      5-min Rain = 0
KQU1 220856Z 22019G24KT 19/11 A2985 RMK A01 T01880109  RH  060%=      5-min Rain = 0
KQU1 220857Z 22019KT 19/11 A2985 RMK A01 T01880109  RH  060%=      5-min Rain = 0
KQU1 220858Z 22023G29KT 19/11 A2985 RMK A01 T01880110  RH  060%=      5-min Rain = 0
KQU1 220859Z 22019KT 19/11 A2985 RMK A01 T01890110  RH  060%=      5-min Rain = 0
KQU1 220900Z 22019KT 19/11 A2985 RMK A01 T01880109  RH  060%=      5-min Rain = 0
KQU1 220901Z 22017KT 19/11 A2986 RMK A01 T01870110  RH  061%=      5-min Rain = 0
KQU1 220902Z 22018KT 19/11 A2986 RMK A01 T01860110  RH  061%=      5-min Rain = 0
KQU1 220903Z 22019G24KT 19/11 A2986 RMK A01 T01860110  RH  061%=      5-min Rain = 0
KQU1 220904Z 22019KT 19/11 A2986 RMK A01 T01870110  RH  061%=      5-min Rain = 0
KQU1 220905Z 22019KT 19/11 A2986 RMK A01 T01870111  RH  061%=      5-min Rain = 0
KQU1 220906Z 23018KT 19/11 A2986 RMK A01 T01870111  RH  061%=      5-min Rain = 0
KQU1 220907Z 23017KT 19/11 A2987 RMK A01 T01870111  RH  061%=      5-min Rain = 0
KQU1 220908Z 24017KT 19/11 A2987 RMK A01 T01870111  RH  061%=      5-min Rain = 0
KQU1 220909Z 24019KT 19/11 A2987 RMK A01 T01880112  RH  061%=      5-min Rain = 0
KQU1 220910Z 25019KT 19/11 A2988 RMK A01 T01890112  RH  061%=      5-min Rain = 0
KQU1 220911Z 25018KT 19/11 A2988 RMK A01 T01890112  RH  061%=      5-min Rain = 0
KQU1 220912Z 25018KT 19/11 A2988 RMK A01 T01890112  RH  061%=      5-min Rain = 0
KQU1 220913Z 25017KT 19/11 A2988 RMK A01 T01890113  RH  061%=      5-min Rain = 0
KQU1 220914Z 26019KT 19/11 A2988 RMK A01 T01910113  RH  061%=      5-min Rain = 0
KQU1 220915Z 26021KT 19/11 A2988 RMK A01 T01920113  RH  060%=      5-min Rain = 0
KQU1 220916Z 25018KT 19/11 A2988 RMK A01 T01930113  RH  060%=      5-min Rain = 0
KQU1 220917Z 25016KT 19/11 A2988 RMK A01 T01930113  RH  060%=      5-min Rain = 0
KQU1 220918Z 25018KT 19/11 A2988 RMK A01 T01930112  RH  060%=      5-min Rain = 0
KQU1 220919Z 26017KT 19/11 A2988 RMK A01 T01930112  RH  060%=      5-min Rain = 0
KQU1 220920Z 26017KT 19/11 A2988 RMK A01 T01920112  RH  060%=      5-min Rain = 0
KQU1 220921Z 26017KT 19/11 A2988 RMK A01 T01910111  RH  059%=      5-min Rain = 0
KQU1 220922Z 26015KT 19/11 A2988 RMK A01 T01900109  RH  060%=      5-min Rain = 0
KQU1 220923Z 26016KT 19/11 A2988 RMK A01 T01870108  RH  060%=      5-min Rain = 0
KQU1 220924Z 26017KT 18/11 A2988 RMK A01 T01840106  RH  060%=      5-min Rain = 0
KQU1 220925Z 25017KT 18/10 A2988 RMK A01 T01820104  RH  060%=      5-min Rain = 0
KQU1 220926Z 24015KT 18/10 A2988 RMK A01 T01790103  RH  061%=      5-min Rain = 0
KQU1 220927Z 25017KT 18/10 A2988 RMK A01 T01760100  RH  061%=      5-min Rain = 0
KQU1 220928Z 24017KT 18/10 A2988 RMK A01 T01750098  RH  061%=      5-min Rain = 0
KQU1 220929Z 24016KT 17/10 A2988 RMK A01 T01730097  RH  061%=      5-min Rain = 0
KQU1 220930Z 25018KT 17/10 A2988 RMK A01 T01720096  RH  061%=      5-min Rain = 0
KQU1 220931Z 26017KT 17/10 A2988 RMK A01 T01720095  RH  061%=      5-min Rain = 0
KQU1 220932Z 26017KT 17/10 A2988 RMK A01 T01710095  RH  061%=      5-min Rain = 0
KQU1 220933Z 27016KT 17/09 A2989 RMK A01 T01710094  RH  060%=      5-min Rain = 0
KQU1 220934Z 26018KT 17/09 A2988 RMK A01 T01710092  RH  060%=      5-min Rain = 0
KQU1 220935Z 25020G25KT 17/09 A2988 RMK A01 T01710092  RH  060%=      5-min Rain = 0
KQU1 220936Z 25020KT 17/09 A2988 RMK A01 T01710093  RH  060%=      5-min Rain = 0
KQU1 220937Z 25017KT 17/10 A2988 RMK A01 T01720095  RH  060%=      5-min Rain = 0
KQU1 220938Z 26018KT 17/10 A2988 RMK A01 T01740098  RH  061%=      5-min Rain = 0
KQU1 220939Z 26018KT 18/10 A2988 RMK A01 T01760099  RH  060%=      5-min Rain = 0
KQU1 220940Z 27018KT 18/10 A2989 RMK A01 T01770097  RH  059%=      5-min Rain = 0
KQU1 220941Z 27016G21KT 18/09 A2989 RMK A01 T01760094  RH  059%=      5-min Rain = 0
KQU1 220942Z 27019KT 18/09 A2989 RMK A01 T01750093  RH  058%=      5-min Rain = 0
KQU1 220943Z 27018KT 18/09 A2989 RMK A01 T01750093  RH  058%=      5-min Rain = 0
KQU1 220944Z 26015KT 18/09 A2989 RMK A01 T01750091  RH  058%=      5-min Rain = 0
KQU1 220945Z 27016G21KT 17/09 A299 RMK A01 T01740092  RH  058%=      5-min Rain = 0
KQU1 220946Z 27017KT 18/09 A299 RMK A01 T01750091  RH  058%=      5-min Rain = 0
KQU1 220947Z 27015KT 18/09 A299 RMK A01 T01750090  RH  057%=      5-min Rain = 0
KQU1 220948Z 27015KT 18/09 A299 RMK A01 T01750089  RH  057%=      5-min Rain = 0
KQU1 220949Z 27016KT 18/09 A299 RMK A01 T01750087  RH  056%=      5-min Rain = 0
KQU1 220950Z 27016G21KT 18/09 A299 RMK A01 T01760086  RH  055%=      5-min Rain = 0
KQU1 220951Z 28013G18KT 18/08 A2991 RMK A01 T01760084  RH  055%=      5-min Rain = 0
KQU1 220952Z 28012KT 18/08 A2991 RMK A01 T01760082  RH  054%=      5-min Rain = 0
KQU1 220953Z 29011KT 18/08 A2991 RMK A01 T01760081  RH  054%=      5-min Rain = 0
KQU1 220954Z 31010KT 18/08 A2991 RMK A01 T01760079  RH  053%=      5-min Rain = 0
KQU1 220955Z 31012KT 18/08 A2991 RMK A01 T01750077  RH  052%=      5-min Rain = 0
KQU1 220956Z 30010KT 18/08 A2991 RMK A01 T01760076  RH  052%=      5-min Rain = 0
KQU1 220957Z 34007KT 18/08 A2992 RMK A01 T01750077  RH  052%=      5-min Rain = 0
KQU1 220958Z 33009KT 18/07 A2992 RMK A01 T01750074  RH  052%=      5-min Rain = 0
KQU1 220959Z 34008KT 17/07 A2992 RMK A01 T01740074  RH  052%=      5-min Rain = 0
KQU1 221000Z 33008KT 17/07 A2992 RMK A01 T01740072  RH  051%=      5-min Rain = 0
KQU1 221001Z 33010KT 17/07 A2992 RMK A01 T01730070  RH  050%=      5-min Rain = 0
KQU1 221002Z 33012KT 17/06 A2992 RMK A01 T01730063  RH  049%=      5-min Rain = 0
KQU1 221003Z 31013KT 17/06 A2992 RMK A01 T01720056  RH  046%=      5-min Rain = 0
KQU1 221004Z 31015KT 17/05 A2992 RMK A01 T01710051  RH  045%=      5-min Rain = 0
KQU1 221005Z 32012G17KT 17/05 A2992 RMK A01 T01690049  RH  045%=      5-min Rain = 0
KQU1 221006Z 32012KT 17/04 A2992 RMK A01 T01690037  RH  041%=      5-min Rain = 0
KQU1 221007Z 31013KT 17/03 A2992 RMK A01 T01680033  RH  040%=      5-min Rain = 0
KQU1 221008Z 32011KT 17/03 A2992 RMK A01 T01680031  RH  040%=      5-min Rain = 0
KQU1 221009Z 32011KT 17/03 A2992 RMK A01 T01680026  RH  038%=      5-min Rain = 0
KQU1 221010Z 34007KT 17/03 A2992 RMK A01 T01690028  RH  039%=      5-min Rain = 0
KQU1 221011Z 32007KT 17/03 A2992 RMK A01 T01700027  RH  038%=      5-min Rain = 0
KQU1 221012Z 32010KT 17/02 A2992 RMK A01 T01700019  RH  036%=      5-min Rain = 0
KQU1 221013Z 32010KT 17/01 A2992 RMK A01 T01690014  RH  035%=      5-min Rain = 0
KQU1 221014Z 32008KT 17/01 A2992 RMK A01 T01680009  RH  034%=      5-min Rain = 0
KQU1 221015Z 33008KT 17/01 A2992 RMK A01 T01680008  RH  034%=      5-min Rain = 0
KQU1 221016Z 34008KT 17/01 A2992 RMK A01 T01680007  RH  034%=      5-min Rain = 0
KQU1 221017Z 33008KT 17/01 A2992 RMK A01 T01680005  RH  033%=      5-min Rain = 0
KQU1 221018Z 32007KT 17/00 A2992 RMK A01 T01680004  RH  033%=      5-min Rain = 0
KQU1 221019Z 32011KT 17/00 A2992 RMK A01 T01670004  RH  033%=      5-min Rain = 0
KQU1 221020Z 32010KT 17/00 A2992 RMK A01 T01670004  RH  033%=      5-min Rain = 0
KQU1 221021Z 33009KT 17/01 A2992 RMK A01 T01670005  RH  033%=      5-min Rain = 0
KQU1 221022Z 32007KT 17/01 A2993 RMK A01 T01670006  RH  034%=      5-min Rain = 0
KQU1 221023Z 32010KT 17/01 A2993 RMK A01 T01660009  RH  035%=      5-min Rain = 0
KQU1 221024Z 34009KT 17/01 A2993 RMK A01 T01660012  RH  035%=      5-min Rain = 0
KQU1 221025Z 33007KT 17/01 A2993 RMK A01 T01660014  RH  036%=      5-min Rain = 0
KQU1 221026Z 34009KT 17/02 A2993 RMK A01 T01650018  RH  037%=      5-min Rain = 0
KQU1 221027Z 34007G13KT 16/02 A2993 RMK A01 T01640021  RH  038%=      5-min Rain = 0
KQU1 221028Z 33010KT 16/03 A2993 RMK A01 T01640027  RH  040%=      5-min Rain = 0
KQU1 221029Z 34011G16KT 16/03 A2994 RMK A01 T01640030  RH  041%=      5-min Rain = 0
KQU1 221030Z 32011KT 16/03 A2994 RMK A01 T01640031  RH  041%=      5-min Rain = 0
KQU1 221031Z 33011KT 16/03 A2994 RMK A01 T01640033  RH  042%=      5-min Rain = 0
KQU1 221032Z 34014G21KT 16/04 A2993 RMK A01 T01640038  RH  043%=      5-min Rain = 0
KQU1 221033Z 36011G18KT 16/04 A2993 RMK A01 T01630042  RH  044%=      5-min Rain = 0
KQU1 221034Z 36015G21KT 16/05 A2993 RMK A01 T01630046  RH  046%=      5-min Rain = 0
KQU1 221035Z 35009G14KT 16/05 A2993 RMK A01 T01620046  RH  046%=      5-min Rain = 0
KQU1 221036Z 35015G20KT 16/05 A2993 RMK A01 T01620048  RH  047%=      5-min Rain = 0
KQU1 221037Z 34015G21KT 16/05 A2993 RMK A01 T01620049  RH  047%=      5-min Rain = 0
KQU1 221038Z 33013G18KT 16/05 A2994 RMK A01 T01610046  RH  046%=      5-min Rain = 0
KQU1 221039Z 34011KT 16/05 A2994 RMK A01 T01610047  RH  047%=      5-min Rain = 0
KQU1 221040Z 35011KT 16/05 A2994 RMK A01 T01610053  RH  049%=      5-min Rain = 0
KQU1 221041Z 34010G16KT 16/06 A2994 RMK A01 T01600055  RH  050%=      5-min Rain = 0
KQU1 221042Z 00007G13KT 16/06 A2994 RMK A01 T01600057  RH  050%=      5-min Rain = 0
KQU1 221043Z 34009G14KT 16/06 A2994 RMK A01 T01590060  RH  052%=      5-min Rain = 0
KQU1 221044Z 34009G15KT 16/06 A2994 RMK A01 T01590061  RH  052%=      5-min Rain = 0
KQU1 221045Z 35013G21KT 16/06 A2995 RMK A01 T01590061  RH  052%=      5-min Rain = 0
KQU1 221046Z 35014G26KT 16/06 A2995 RMK A01 T01590064  RH  053%=      5-min Rain = 0
KQU1 221047Z 35011G16KT 16/07 A2995 RMK A01 T01580065  RH  054%=      5-min Rain = 0
KQU1 221048Z 35014G22KT 16/07 A2995 RMK A01 T01580066  RH  054%=      5-min Rain = 0
KQU1 221049Z 35013G21KT 16/07 A2994 RMK A01 T01580066  RH  054%=      5-min Rain = 0
KQU1 221050Z 34019G26KT 16/07 A2994 RMK A01 T01580067  RH  055%=      5-min Rain = 0
KQU1 221051Z 34018KT 16/07 A2994 RMK A01 T01580067  RH  055%=      5-min Rain = 0
KQU1 221052Z 34017KT 16/07 A2994 RMK A01 T01580067  RH  055%=      5-min Rain = 0
KQU1 221053Z 35015G20KT 16/07 A2994 RMK A01 T01580069  RH  055%=      5-min Rain = 0
KQU1 221054Z 34017G23KT 16/07 A2994 RMK A01 T01570070  RH  056%=      5-min Rain = 0
KQU1 221055Z 35016G21KT 16/07 A2994 RMK A01 T01570070  RH  056%=      5-min Rain = 0
KQU1 221056Z 34018KT 16/07 A2994 RMK A01 T01570069  RH  056%=      5-min Rain = 0
KQU1 221057Z 35016G21KT 16/07 A2994 RMK A01 T01570070  RH  056%=      5-min Rain = 0
KQU1 221058Z 35014G22KT 16/07 A2994 RMK A01 T01560071  RH  057%=      5-min Rain = 0
KQU1 221059Z 35015G25KT 16/07 A2994 RMK A01 T01560072  RH  057%=      5-min Rain = 0
KQU1 221100Z 34015G22KT 16/07 A2995 RMK A01 T01560072  RH  058%=      5-min Rain = 0
KQU1 221101Z 35018G24KT 16/07 A2995 RMK A01 T01560072  RH  058%=      5-min Rain = 0
KQU1 221102Z 34015G20KT 16/07 A2995 RMK A01 T01560073  RH  058%=      5-min Rain = 0
KQU1 221103Z 35016KT 16/07 A2995 RMK A01 T01550072  RH  058%=      5-min Rain = 0
KQU1 221104Z 35015G23KT 16/07 A2995 RMK A01 T01550073  RH  058%=      5-min Rain = 0
KQU1 221105Z 35015KT 16/07 A2995 RMK A01 T01550073  RH  058%=      5-min Rain = 0
KQU1 221106Z 35012G18KT 15/07 A2995 RMK A01 T01540074  RH  059%=      5-min Rain = 0
KQU1 221107Z 35012G17KT 15/07 A2995 RMK A01 T01540074  RH  059%=      5-min Rain = 0
KQU1 221108Z 35012G17KT 15/08 A2995 RMK A01 T01540075  RH  059%=      5-min Rain = 0
KQU1 221109Z 35010G16KT 15/08 A2995 RMK A01 T01540075  RH  059%=      5-min Rain = 0
KQU1 221110Z 00009KT 15/08 A2995 RMK A01 T01530075  RH  059%=      5-min Rain = 0
KQU1 221111Z 36015G20KT 15/08 A2995 RMK A01 T01530075  RH  059%=      5-min Rain = 0
KQU1 221112Z 35011G16KT 15/08 A2995 RMK A01 T01530075  RH  060%=      5-min Rain = 0
KQU1 221113Z 36011G20KT 15/08 A2995 RMK A01 T01530075  RH  060%=      5-min Rain = 0
KQU1 221114Z 36008KT 15/08 A2995 RMK A01 T01520075  RH  060%=      5-min Rain = 0
KQU1 221115Z 36009KT 15/08 A2996 RMK A01 T01520076  RH  060%=      5-min Rain = 0
KQU1 221116Z 35010G15KT 15/08 A2996 RMK A01 T01510076  RH  061%=      5-min Rain = 0
KQU1 221117Z 36008G13KT 15/08 A2996 RMK A01 T01510075  RH  061%=      5-min Rain = 0
KQU1 221118Z 35012KT 15/08 A2996 RMK A01 T01500075  RH  061%=      5-min Rain = 0
KQU1 221119Z 36011G16KT 15/08 A2996 RMK A01 T01500075  RH  061%=      5-min Rain = 0
KQU1 221120Z 36009G15KT 15/08 A2996 RMK A01 T01500075  RH  061%=      5-min Rain = 0
KQU1 221121Z 35011KT 15/08 A2996 RMK A01 T01500075  RH  061%=      5-min Rain = 0
KQU1 221122Z 35011KT 15/08 A2996 RMK A01 T01500075  RH  061%=      5-min Rain = 0
KQU1 221123Z 34007KT 15/08 A2996 RMK A01 T01500075  RH  061%=      5-min Rain = 0
KQU1 221124Z 35011G16KT 15/08 A2996 RMK A01 T01500075  RH  061%=      5-min Rain = 0
KQU1 221125Z 35011G16KT 15/08 A2996 RMK A01 T01500075  RH  061%=      5-min Rain = 0
KQU1 221126Z 36014G19KT 15/08 A2996 RMK A01 T01500075  RH  061%=      5-min Rain = 0
KQU1 221127Z 35011G18KT 15/08 A2996 RMK A01 T01500075  RH  061%=      5-min Rain = 0
KQU1 221128Z 35013G18KT 15/08 A2996 RMK A01 T01500075  RH  061%=      5-min Rain = 0
KQU1 221129Z 36008KT 15/08 A2997 RMK A01 T01500075  RH  061%=      5-min Rain = 0
KQU1 221130Z 36010G18KT 15/08 A2997 RMK A01 T01500075  RH  061%=      5-min Rain = 0
KQU1 221131Z 35016G24KT 15/07 A2996 RMK A01 T01500074  RH  060%=      5-min Rain = 0
KQU1 221132Z 00011G18KT 15/07 A2997 RMK A01 T01500074  RH  060%=      5-min Rain = 0
KQU1 221133Z 34007KT 15/08 A2997 RMK A01 T01500075  RH  061%=      5-min Rain = 0
KQU1 221134Z 35009KT 15/08 A2997 RMK A01 T01500075  RH  061%=      5-min Rain = 0
KQU1 221135Z 36011KT 15/08 A2997 RMK A01 T01500075  RH  061%=      5-min Rain = 0
KQU1 221136Z 35010G18KT 15/08 A2997 RMK A01 T01490075  RH  061%=      5-min Rain = 0
KQU1 221137Z 36012G19KT 15/08 A2997 RMK A01 T01490075  RH  061%=      5-min Rain = 0
KQU1 221138Z 36009KT 15/08 A2997 RMK A01 T01490075  RH  061%=      5-min Rain = 0
KQU1 221139Z 00008KT 15/08 A2997 RMK A01 T01490075  RH  061%=      5-min Rain = 0
KQU1 221140Z 35008G14KT 15/08 A2997 RMK A01 T01480075  RH  061%=      5-min Rain = 0
KQU1 221141Z 36011G18KT 15/08 A2997 RMK A01 T01480075  RH  061%=      5-min Rain = 0
KQU1 221142Z 36008KT 15/08 A2997 RMK A01 T01480075  RH  062%=      5-min Rain = 0
KQU1 221143Z 35011G17KT 15/08 A2997 RMK A01 T01470075  RH  062%=      5-min Rain = 0
KQU1 221144Z 35010G16KT 15/07 A2997 RMK A01 T01470074  RH  062%=      5-min Rain = 0
KQU1 221145Z 35010G16KT 15/07 A2997 RMK A01 T01470074  RH  061%=      5-min Rain = 0
KQU1 221146Z 35011G19KT 15/07 A2997 RMK A01 T01470074  RH  062%=      5-min Rain = 0
KQU1 221147Z 36014G20KT 15/07 A2997 RMK A01 T01480074  RH  061%=      5-min Rain = 0
KQU1 221148Z 36011KT 15/07 A2997 RMK A01 T01480074  RH  061%=      5-min Rain = 0
KQU1 221149Z 35011G17KT 15/07 A2997 RMK A01 T01470074  RH  061%=      5-min Rain = 0
KQU1 221150Z 35010G15KT 15/07 A2997 RMK A01 T01470074  RH  062%=      5-min Rain = 0
KQU1 221151Z 36010G16KT 15/07 A2997 RMK A01 T01470074  RH  062%=      5-min Rain = 0
KQU1 221152Z 00008KT 15/07 A2997 RMK A01 T01470074  RH  062%=      5-min Rain = 0
KQU1 221153Z 00007KT 15/07 A2998 RMK A01 T01460074  RH  062%=      5-min Rain = 0
KQU1 221154Z 36010G17KT 15/07 A2998 RMK A01 T01460073  RH  062%=      5-min Rain = 0
KQU1 221155Z 00008G14KT 15/07 A2998 RMK A01 T01460073  RH  062%=      5-min Rain = 0
KQU1 221156Z 35008KT 15/07 A2998 RMK A01 T01450073  RH  062%=      5-min Rain = 0
KQU1 221157Z 00008G14KT 15/07 A2997 RMK A01 T01450074  RH  062%=      5-min Rain = 0
KQU1 221158Z 35010G15KT 15/07 A2997 RMK A01 T01450074  RH  062%=      5-min Rain = 0
KQU1 221159Z 35011G17KT 14/07 A2997 RMK A01 T01440073  RH  062%=      5-min Rain = 0
KQU1 221200Z 36011G18KT 14/07 A2997 RMK A01 T01440073  RH  063%=      5-min Rain = 0
KQU1 221201Z 35011KT 14/07 A2998 RMK A01 T01430073  RH  063%=      5-min Rain = 0
KQU1 221202Z 36011G17KT 14/07 A2998 RMK A01 T01430073  RH  063%=      5-min Rain = 0
KQU1 221203Z 00011G17KT 14/07 A2998 RMK A01 T01430073  RH  063%=      5-min Rain = 0
KQU1 221204Z 35011G16KT 14/07 A2998 RMK A01 T01430073  RH  063%=      5-min Rain = 0
KQU1 221205Z 36013G19KT 14/07 A2998 RMK A01 T01430073  RH  063%=      5-min Rain = 0
KQU1 221206Z 35010G15KT 14/07 A2998 RMK A01 T01430073  RH  063%=      5-min Rain = 0
KQU1 221207Z 35009KT 14/07 A2998 RMK A01 T01420073  RH  063%=      5-min Rain = 0
KQU1 221208Z 35009KT 14/07 A2999 RMK A01 T01420073  RH  063%=      5-min Rain = 0
KQU1 221209Z 35012G17KT 14/07 A2998 RMK A01 T01420073  RH  063%=      5-min Rain = 0
KQU1 221210Z 36010G17KT 14/07 A2998 RMK A01 T01420073  RH  063%=      5-min Rain = 0
KQU1 221211Z 35008KT 14/07 A2998 RMK A01 T01410073  RH  063%=      5-min Rain = 0
KQU1 221212Z 35008G13KT 14/07 A2998 RMK A01 T01420073  RH  063%=      5-min Rain = 0
KQU1 221213Z 35016G23KT 14/07 A2998 RMK A01 T01410072  RH  063%=      5-min Rain = 0
KQU1 221214Z 34013G19KT 14/07 A2998 RMK A01 T01420072  RH  063%=      5-min Rain = 0
KQU1 221215Z 34018G25KT 14/07 A2998 RMK A01 T01420072  RH  063%=      5-min Rain = 0
KQU1 221216Z 33016G22KT 14/07 A2999 RMK A01 T01420072  RH  063%=      5-min Rain = 0
KQU1 221217Z 35013G19KT 14/07 A2999 RMK A01 T01420072  RH  063%=      5-min Rain = 0
KQU1 221218Z 34013G21KT 14/07 A2999 RMK A01 T01420072  RH  063%=      5-min Rain = 0
KQU1 221219Z 35013G20KT 14/07 A2999 RMK A01 T01420072  RH  063%=      5-min Rain = 0
KQU1 221220Z 35014G21KT 14/07 A2999 RMK A01 T01410073  RH  063%=      5-min Rain = 0
KQU1 221221Z 34014G22KT 14/07 A2999 RMK A01 T01410073  RH  063%=      5-min Rain = 0
KQU1 221222Z 34018G25KT 14/07 A2999 RMK A01 T01410073  RH  063%=      5-min Rain = 0
KQU1 221223Z 35015G21KT 14/07 A2999 RMK A01 T01410074  RH  064%=      5-min Rain = 0
KQU1 221224Z 34015G21KT 14/07 A2999 RMK A01 T01410074  RH  064%=      5-min Rain = 0
KQU1 221225Z 33016KT 14/07 A30 RMK A01 T01410073  RH  064%=      5-min Rain = 0
KQU1 221226Z 35015G21KT 14/07 A30 RMK A01 T01410073  RH  064%=      5-min Rain = 0
KQU1 221227Z 34015KT 14/07 A30 RMK A01 T01400074  RH  064%=      5-min Rain = 0
KQU1 221228Z 34015G23KT 14/07 A30 RMK A01 T01400074  RH  064%=      5-min Rain = 0
KQU1 221229Z 34020G27KT 14/07 A30 RMK A01 T01400074  RH  064%=      5-min Rain = 0
KQU1 221230Z 34019G24KT 14/07 A30 RMK A01 T01400074  RH  064%=      5-min Rain = 0
KQU1 221231Z 36016G23KT 14/07 A30 RMK A01 T01400074  RH  064%=      5-min Rain = 0
KQU1 221232Z 33018G23KT 14/07 A30 RMK A01 T01400074  RH  065%=      5-min Rain = 0
KQU1 221233Z 34018G25KT 14/07 A30 RMK A01 T01400074  RH  065%=      5-min Rain = 0
KQU1 221234Z 34013G18KT 14/08 A30 RMK A01 T01400075  RH  065%=      5-min Rain = 0
KQU1 221235Z 35010G15KT 14/08 A30 RMK A01 T01400075  RH  065%=      5-min Rain = 0
KQU1 221236Z 35012G17KT 14/08 A30 RMK A01 T01400075  RH  065%=      5-min Rain = 0
KQU1 221237Z 35013KT 14/08 A30 RMK A01 T01400075  RH  065%=      5-min Rain = 0
KQU1 221238Z 34013G20KT 14/08 A30 RMK A01 T01400076  RH  065%=      5-min Rain = 0
KQU1 221239Z 34013G20KT 14/08 A30 RMK A01 T01390076  RH  065%=      5-min Rain = 0
KQU1 221240Z 35015KT 14/08 A30 RMK A01 T01390075  RH  065%=      5-min Rain = 0
KQU1 221241Z 34016KT 14/08 A30 RMK A01 T01390075  RH  065%=      5-min Rain = 0
KQU1 221242Z 35009KT 14/08 A30 RMK A01 T01390076  RH  066%=      5-min Rain = 0
KQU1 221243Z 35013G19KT 14/08 A3001 RMK A01 T01390076  RH  066%=      5-min Rain = 0
KQU1 221244Z 34012G18KT 14/08 A3001 RMK A01 T01390076  RH  066%=      5-min Rain = 0
KQU1 221245Z 34014KT 14/08 A3001 RMK A01 T01390076  RH  066%=      5-min Rain = 0
KQU1 221246Z 35011G16KT 14/08 A3001 RMK A01 T01390077  RH  066%=      5-min Rain = 0
KQU1 221247Z 34012G19KT 14/08 A3001 RMK A01 T01390077  RH  066%=      5-min Rain = 0
KQU1 221248Z 35012G18KT 14/08 A3001 RMK A01 T01390077  RH  066%=      5-min Rain = 0
KQU1 221249Z 36013G21KT 14/08 A3001 RMK A01 T01390077  RH  066%=      5-min Rain = 0
KQU1 221250Z 34012G19KT 14/08 A3001 RMK A01 T01390077  RH  066%=      5-min Rain = 0
KQU1 221251Z 35012G19KT 14/08 A3001 RMK A01 T01390077  RH  066%=      5-min Rain = 0
KQU1 221252Z 35013G18KT 14/08 A3001 RMK A01 T01390077  RH  066%=      5-min Rain = 0
KQU1 221253Z 00012G22KT 14/08 A3001 RMK A01 T01390077  RH  066%=      5-min Rain = 0
KQU1 221254Z 34012G22KT 14/08 A3001 RMK A01 T01390077  RH  066%=      5-min Rain = 0
KQU1 221255Z 35013G18KT 14/08 A3001 RMK A01 T01390078  RH  067%=      5-min Rain = 0
KQU1 221256Z 35010G17KT 14/08 A3001 RMK A01 T01390078  RH  067%=      5-min Rain = 0
KQU1 221257Z 35011G19KT 14/08 A3002 RMK A01 T01390078  RH  067%=      5-min Rain = 0
KQU1 221258Z 36010G15KT 14/08 A3002 RMK A01 T01390078  RH  067%=      5-min Rain = 0
KQU1 221259Z 34011KT 14/08 A3002 RMK A01 T01390078  RH  067%=      5-min Rain = 0
KQU1 221300Z 35011G18KT 14/08 A3002 RMK A01 T01390078  RH  067%=      5-min Rain = 0
KQU1 221301Z 35012G19KT 14/08 A3002 RMK A01 T01390078  RH  067%=      5-min Rain = 0
KQU1 221302Z 34011G18KT 14/08 A3002 RMK A01 T01390078  RH  067%=      5-min Rain = 0
KQU1 221303Z 34014G21KT 14/08 A3002 RMK A01 T01400079  RH  067%=      5-min Rain = 0
KQU1 221304Z 34014G21KT 14/08 A3002 RMK A01 T01400078  RH  066%=      5-min Rain = 0
KQU1 221305Z 35015G21KT 14/08 A3002 RMK A01 T01400078  RH  066%=      5-min Rain = 0
KQU1 221306Z 35014KT 14/08 A3002 RMK A01 T01400078  RH  066%=      5-min Rain = 0
KQU1 221307Z 34015G22KT 14/08 A3002 RMK A01 T01400079  RH  067%=      5-min Rain = 0
KQU1 221308Z 34016G22KT 14/08 A3002 RMK A01 T01400079  RH  067%=      5-min Rain = 0
KQU1 221309Z 34015G20KT 14/08 A3002 RMK A01 T01400079  RH  067%=      5-min Rain = 0
KQU1 221310Z 35011G17KT 14/08 A3003 RMK A01 T01390079  RH  067%=      5-min Rain = 0
KQU1 221311Z 34013G20KT 14/08 A3003 RMK A01 T01390079  RH  067%=      5-min Rain = 0
KQU1 221312Z 35012G17KT 14/08 A3003 RMK A01 T01390079  RH  067%=      5-min Rain = 0
KQU1 221313Z 34012G17KT 14/08 A3003 RMK A01 T01390079  RH  067%=      5-min Rain = 0
KQU1 221314Z 35015G22KT 14/08 A3003 RMK A01 T01390079  RH  067%=      5-min Rain = 0
KQU1 221315Z 34015G20KT 14/08 A3003 RMK A01 T01390079  RH  067%=      5-min Rain = 0
KQU1 221316Z 33016KT 14/08 A3003 RMK A01 T01390079  RH  067%=      5-min Rain = 0
KQU1 221317Z 34015G21KT 14/08 A3003 RMK A01 T01390079  RH  067%=      5-min Rain = 0
KQU1 221318Z 34015G20KT 14/08 A3003 RMK A01 T01390079  RH  067%=      5-min Rain = 0
KQU1 221319Z 34012KT 14/08 A3003 RMK A01 T01390080  RH  068%=      5-min Rain = 0
KQU1 221320Z 35014G20KT 14/08 A3003 RMK A01 T01380080  RH  068%=      5-min Rain = 0
KQU1 221321Z 35017KT 14/08 A3003 RMK A01 T01390080  RH  068%=      5-min Rain = 0
KQU1 221322Z 35009KT 14/08 A3003 RMK A01 T01390080  RH  068%=      5-min Rain = 0
KQU1 221323Z 36011G17KT 14/08 A3003 RMK A01 T01390080  RH  068%=      5-min Rain = 0
KQU1 221324Z 35013KT 14/08 A3003 RMK A01 T01390080  RH  068%=      5-min Rain = 0
KQU1 221325Z 35009G16KT 14/08 A3003 RMK A01 T01390081  RH  068%=      5-min Rain = 0
KQU1 221326Z 34014G19KT 14/08 A3003 RMK A01 T01390081  RH  068%=      5-min Rain = 0
KQU1 221327Z 35011G16KT 14/08 A3003 RMK A01 T01390081  RH  068%=      5-min Rain = 0
KQU1 221328Z 35011G18KT 14/08 A3003 RMK A01 T01390081  RH  068%=      5-min Rain = 0
KQU1 221329Z 35012KT 14/08 A3003 RMK A01 T01390081  RH  068%=      5-min Rain = 0
KQU1 221330Z 35012G18KT 14/08 A3003 RMK A01 T01390081  RH  068%=      5-min Rain = 0
KQU1 221331Z 35013G21KT 14/08 A3003 RMK A01 T01390081  RH  068%=      5-min Rain = 0
KQU1 221332Z 35014KT 14/08 A3003 RMK A01 T01390081  RH  068%=      5-min Rain = 0
KQU1 221333Z 35011G16KT 14/08 A3003 RMK A01 T01390081  RH  068%=      5-min Rain = 0
KQU1 221334Z 35009KT 14/08 A3003 RMK A01 T01390082  RH  068%=      5-min Rain = 0
KQU1 221335Z 34014G19KT 14/08 A3003 RMK A01 T01390082  RH  068%=      5-min Rain = 0
KQU1 221336Z 35013G20KT 14/08 A3003 RMK A01 T01390082  RH  068%=      5-min Rain = 0
KQU1 221337Z 34015G21KT 14/08 A3003 RMK A01 T01390081  RH  068%=      5-min Rain = 0
KQU1 221338Z 34012KT 14/08 A3003 RMK A01 T01390082  RH  068%=      5-min Rain = 0
KQU1 221339Z 35009G14KT 14/08 A3003 RMK A01 T01390082  RH  068%=      5-min Rain = 0
KQU1 221340Z 35012G19KT 14/08 A3003 RMK A01 T01390083  RH  069%=      5-min Rain = 0
KQU1 221341Z 35010G19KT 14/08 A3003 RMK A01 T01390083  RH  069%=      5-min Rain = 0
KQU1 221342Z 35010G16KT 14/08 A3003 RMK A01 T01390083  RH  069%=      5-min Rain = 0
KQU1 221343Z 35010G15KT 14/08 A3003 RMK A01 T01390083  RH  069%=      5-min Rain = 0
KQU1 221344Z 34013G20KT 14/08 A3003 RMK A01 T01390083  RH  069%=      5-min Rain = 0
KQU1 221345Z 33015G20KT 14/08 A3003 RMK A01 T01390082  RH  068%=      5-min Rain = 0
KQU1 221346Z 35014G19KT 14/08 A3003 RMK A01 T01390082  RH  069%=      5-min Rain = 0
KQU1 221347Z 35011G18KT 14/08 A3003 RMK A01 T01390082  RH  069%=      5-min Rain = 0
KQU1 221348Z 36012G20KT 14/08 A3003 RMK A01 T01390083  RH  069%=      5-min Rain = 0
KQU1 221349Z 35016G24KT 14/08 A3003 RMK A01 T01390083  RH  069%=      5-min Rain = 0
KQU1 221350Z 34015G21KT 14/08 A3003 RMK A01 T01390083  RH  069%=      5-min Rain = 0
KQU1 221351Z 36014G21KT 14/08 A3003 RMK A01 T01390083  RH  069%=      5-min Rain = 0
KQU1 221352Z 35012G23KT 14/08 A3003 RMK A01 T01390083  RH  069%=      5-min Rain = 0
KQU1 221353Z 35016G22KT 14/08 A3003 RMK A01 T01390083  RH  069%=      5-min Rain = 0
KQU1 221354Z 36013KT 14/08 A3003 RMK A01 T01390084  RH  069%=      5-min Rain = 0
KQU1 221355Z 00010G19KT 14/08 A3003 RMK A01 T01390084  RH  069%=      5-min Rain = 0
KQU1 221356Z 34014KT 14/08 A3003 RMK A01 T01400084  RH  069%=      5-min Rain = 0
KQU1 221357Z 35012G19KT 14/08 A3004 RMK A01 T01400084  RH  069%=      5-min Rain = 0
KQU1 221358Z 34013G21KT 14/08 A3004 RMK A01 T01400084  RH  069%=      5-min Rain = 0
KQU1 221359Z 36015G21KT 14/08 A3004 RMK A01 T01400084  RH  069%=      5-min Rain = 0
KQU1 221400Z 35010G15KT 14/08 A3004 RMK A01 T01400084  RH  069%=      5-min Rain = 0
KQU1 221401Z 36011KT 14/09 A3004 RMK A01 T01400085  RH  069%=      5-min Rain = 0
KQU1 221402Z 36009G19KT 14/09 A3004 RMK A01 T01400085  RH  069%=      5-min Rain = 0
KQU1 221403Z 36012G18KT 14/09 A3004 RMK A01 T01410085  RH  069%=      5-min Rain = 0
KQU1 221404Z 35013G21KT 14/09 A3004 RMK A01 T01410085  RH  069%=      5-min Rain = 0
KQU1 221405Z 35014KT 14/09 A3004 RMK A01 T01410085  RH  069%=      5-min Rain = 0
KQU1 221406Z 34014G22KT 14/09 A3004 RMK A01 T01410085  RH  069%=      5-min Rain = 0
KQU1 221407Z 35014KT 14/08 A3004 RMK A01 T01400084  RH  069%=      5-min Rain = 0
KQU1 221408Z 34013G18KT 14/09 A3004 RMK A01 T01410086  RH  069%=      5-min Rain = 0
KQU1 221409Z 36014G19KT 14/09 A3004 RMK A01 T01410085  RH  069%=      5-min Rain = 0
KQU1 221410Z 00012G20KT 14/09 A3004 RMK A01 T01410086  RH  069%=      5-min Rain = 0
KQU1 221411Z 35012G19KT 14/09 A3004 RMK A01 T01410086  RH  069%=      5-min Rain = 0
KQU1 221412Z 35010KT 14/09 A3004 RMK A01 T01420087  RH  069%=      5-min Rain = 0
KQU1 221413Z 35012G18KT 14/09 A3004 RMK A01 T01420087  RH  069%=      5-min Rain = 0
KQU1 221414Z 36015KT 14/09 A3004 RMK A01 T01430086  RH  069%=      5-min Rain = 0
KQU1 221415Z 34014G21KT 14/09 A3004 RMK A01 T01430087  RH  069%=      5-min Rain = 0
KQU1 221416Z 35012G18KT 14/09 A3004 RMK A01 T01430086  RH  069%=      5-min Rain = 0
KQU1 221417Z 34014G19KT 14/09 A3004 RMK A01 T01430086  RH  069%=      5-min Rain = 0
KQU1 221418Z 35015G22KT 14/09 A3004 RMK A01 T01430086  RH  068%=      5-min Rain = 0
KQU1 221419Z 35010G16KT 14/09 A3004 RMK A01 T01430086  RH  069%=      5-min Rain = 0
KQU1 221420Z 35011G18KT 14/09 A3005 RMK A01 T01430087  RH  069%=      5-min Rain = 0
KQU1 221421Z 35011G19KT 14/09 A3005 RMK A01 T01430086  RH  069%=      5-min Rain = 0
KQU1 221422Z 35014G22KT 14/09 A3005 RMK A01 T01430087  RH  069%=      5-min Rain = 0
KQU1 221423Z 35011G16KT 14/09 A3005 RMK A01 T01430087  RH  069%=      5-min Rain = 0
KQU1 221424Z 36009G14KT 14/09 A3004 RMK A01 T01430087  RH  069%=      5-min Rain = 0
KQU1 221425Z 35014G19KT 14/09 A3004 RMK A01 T01430087  RH  069%=      5-min Rain = 0
KQU1 221426Z 36010G16KT 14/09 A3004 RMK A01 T01440088  RH  069%=      5-min Rain = 0
KQU1 221427Z 35012G18KT 14/09 A3004 RMK A01 T01440088  RH  069%=      5-min Rain = 0
KQU1 221428Z 35014KT 14/09 A3004 RMK A01 T01440087  RH  069%=      5-min Rain = 0
KQU1 221429Z 35012G19KT 14/09 A3004 RMK A01 T01440087  RH  069%=      5-min Rain = 0
KQU1 221430Z 35012G18KT 14/09 A3004 RMK A01 T01440087  RH  069%=      5-min Rain = 0
KQU1 221431Z 35011G18KT 14/09 A3004 RMK A01 T01440088  RH  069%=      5-min Rain = 0
KQU1 221432Z 35011KT 14/09 A3004 RMK A01 T01440088  RH  069%=      5-min Rain = 0
KQU1 221433Z 00011G17KT 14/09 A3004 RMK A01 T01440088  RH  069%=      5-min Rain = 0
KQU1 221434Z 35010KT 15/09 A3004 RMK A01 T01450088  RH  069%=      5-min Rain = 0
KQU1 221435Z 36013G20KT 15/09 A3004 RMK A01 T01450088  RH  069%=      5-min Rain = 0
KQU1 221436Z 00016G24KT 15/09 A3004 RMK A01 T01450088  RH  069%=      5-min Rain = 0
KQU1 221437Z 35014G19KT 15/09 A3004 RMK A01 T01450088  RH  068%=      5-min Rain = 0
KQU1 221438Z 35008KT 15/09 A3004 RMK A01 T01450089  RH  069%=      5-min Rain = 0
KQU1 221439Z 34012G23KT 15/09 A3004 RMK A01 T01450089  RH  069%=      5-min Rain = 0
KQU1 221440Z 35014G20KT 15/09 A3004 RMK A01 T01450088  RH  068%=      5-min Rain = 0
KQU1 221441Z 35013G18KT 15/09 A3004 RMK A01 T01450087  RH  068%=      5-min Rain = 0
KQU1 221442Z 36013G18KT 15/09 A3004 RMK A01 T01450089  RH  069%=      5-min Rain = 0
KQU1 221443Z 35013G19KT 15/09 A3004 RMK A01 T01450089  RH  069%=      5-min Rain = 0
KQU1 221444Z 35012G19KT 15/09 A3004 RMK A01 T01450089  RH  069%=      5-min Rain = 0
KQU1 221445Z 36011KT 15/09 A3004 RMK A01 T01450089  RH  069%=      5-min Rain = 0
KQU1 221446Z 35012G20KT 15/09 A3004 RMK A01 T01460089  RH  069%=      5-min Rain = 0
KQU1 221447Z 35014G21KT 15/09 A3005 RMK A01 T01460089  RH  069%=      5-min Rain = 0
KQU1 221448Z 35014G21KT 15/09 A3004 RMK A01 T01470089  RH  068%=      5-min Rain = 0
KQU1 221449Z 00010G17KT 15/09 A3005 RMK A01 T01470089  RH  069%=      5-min Rain = 0
KQU1 221450Z 36013G18KT 15/09 A3005 RMK A01 T01470089  RH  068%=      5-min Rain = 0
KQU1 221451Z 35008KT 15/09 A3005 RMK A01 T01470090  RH  069%=      5-min Rain = 0
KQU1 221452Z 36008KT 15/09 A3005 RMK A01 T01470091  RH  069%=      5-min Rain = 0
KQU1 221453Z 36008G15KT 15/09 A3005 RMK A01 T01480091  RH  069%=      5-min Rain = 0
KQU1 221454Z 35009G14KT 15/09 A3005 RMK A01 T01490092  RH  069%=      5-min Rain = 0
KQU1 221455Z 35010G16KT 15/09 A3005 RMK A01 T01490092  RH  068%=      5-min Rain = 0
KQU1 221456Z 00009G17KT 15/09 A3005 RMK A01 T01490090  RH  068%=      5-min Rain = 0
KQU1 221457Z 00009G17KT 15/09 A3005 RMK A01 T01490091  RH  068%=      5-min Rain = 0
KQU1 221458Z 35007KT 15/09 A3005 RMK A01 T01500092  RH  068%=      5-min Rain = 0
KQU1 221459Z 35008G17KT 15/09 A3005 RMK A01 T01510093  RH  068%=      5-min Rain = 0
KQU1 221500Z 35012G20KT 15/09 A3005 RMK A01 T01510091  RH  067%=      5-min Rain = 0
KQU1 221501Z 00011G17KT 15/09 A3005 RMK A01 T01510091  RH  067%=      5-min Rain = 0
KQU1 221502Z 36011G17KT 15/09 A3005 RMK A01 T01510091  RH  067%=      5-min Rain = 0
KQU1 221503Z 36012G17KT 15/09 A3005 RMK A01 T01510090  RH  067%=      5-min Rain = 0
KQU1 221504Z 00009KT 15/09 A3005 RMK A01 T01510091  RH  068%=      5-min Rain = 0
KQU1 221505Z 36008G14KT 15/09 A3005 RMK A01 T01510092  RH  068%=      5-min Rain = 0
KQU1 221506Z 34010G15KT 15/09 A3005 RMK A01 T01520092  RH  067%=      5-min Rain = 0
KQU1 221507Z 36007G12KT 15/09 A3005 RMK A01 T01510091  RH  067%=      5-min Rain = 0
KQU1 221508Z 36007KT 15/09 A3005 RMK A01 T01520094  RH  068%=      5-min Rain = 0
KQU1 221509Z 34006G11KT 15/10 A3005 RMK A01 T01540095  RH  068%=      5-min Rain = 0
KQU1 221510Z 35011G17KT 16/10 A3005 RMK A01 T01560095  RH  067%=      5-min Rain = 0
KQU1 221511Z 35013G18KT 16/09 A3005 RMK A01 T01570093  RH  066%=      5-min Rain = 0
KQU1 221512Z 35010G19KT 16/09 A3005 RMK A01 T01570093  RH  066%=      5-min Rain = 0
KQU1 221513Z 34010G16KT 16/09 A3005 RMK A01 T01580093  RH  065%=      5-min Rain = 0
KQU1 221514Z 35013G18KT 16/09 A3005 RMK A01 T01580093  RH  065%=      5-min Rain = 0
KQU1 221515Z 35016KT 16/09 A3005 RMK A01 T01580092  RH  065%=      5-min Rain = 0
KQU1 221516Z 35007G15KT 16/09 A3005 RMK A01 T01590094  RH  065%=      5-min Rain = 0
KQU1 221517Z 01006G13KT 16/10 A3005 RMK A01 T01600095  RH  065%=      5-min Rain = 0
KQU1 221518Z 36008G14KT 16/10 A3005 RMK A01 T01600095  RH  065%=      5-min Rain = 0
KQU1 221519Z 01012G18KT 16/09 A3005 RMK A01 T01600093  RH  064%=      5-min Rain = 0
KQU1 221520Z 00009G19KT 16/09 A3005 RMK A01 T01590092  RH  064%=      5-min Rain = 0
KQU1 221521Z 35007G17KT 16/09 A3005 RMK A01 T01590094  RH  065%=      5-min Rain = 0
KQU1 221522Z 36013KT 16/09 A3005 RMK A01 T01600094  RH  065%=      5-min Rain = 0
KQU1 221523Z 36010G17KT 16/09 A3005 RMK A01 T01610094  RH  065%=      5-min Rain = 0
KQU1 221524Z 35010G16KT 16/10 A3005 RMK A01 T01630097  RH  065%=      5-min Rain = 0
KQU1 221525Z 34014KT 16/09 A3005 RMK A01 T01640094  RH  063%=      5-min Rain = 0
KQU1 221526Z 36011G16KT 16/09 A3005 RMK A01 T01620092  RH  063%=      5-min Rain = 0
KQU1 221527Z 35010G18KT 16/09 A3005 RMK A01 T01600093  RH  064%=      5-min Rain = 0
KQU1 221528Z 36010G16KT 16/09 A3005 RMK A01 T01600094  RH  065%=      5-min Rain = 0
KQU1 221529Z 35006G12KT 16/09 A3005 RMK A01 T01600094  RH  065%=      5-min Rain = 0
KQU1 221530Z 35009G16KT 16/10 A3005 RMK A01 T01610095  RH  065%=      5-min Rain = 0
KQU1 221531Z 34007KT 16/10 A3005 RMK A01 T01620095  RH  065%=      5-min Rain = 0
KQU1 221532Z 35009G16KT 16/09 A3005 RMK A01 T01620094  RH  064%=      5-min Rain = 0
KQU1 221533Z 36010G20KT 16/10 A3005 RMK A01 T01630096  RH  064%=      5-min Rain = 0
KQU1 221534Z 35011G18KT 17/10 A3005 RMK A01 T01650096  RH  064%=      5-min Rain = 0
KQU1 221535Z 01007G14KT 17/10 A3005 RMK A01 T01660096  RH  063%=      5-min Rain = 0
KQU1 221536Z 36014G19KT 17/09 A3005 RMK A01 T01660094  RH  063%=      5-min Rain = 0
KQU1 221537Z 36014KT 16/09 A3005 RMK A01 T01640093  RH  063%=      5-min Rain = 0
KQU1 221538Z 00010G17KT 16/09 A3005 RMK A01 T01630094  RH  063%=      5-min Rain = 0
KQU1 221539Z 35012G17KT 16/09 A3005 RMK A01 T01620094  RH  064%=      5-min Rain = 0
KQU1 221540Z 00012G19KT 16/09 A3005 RMK A01 T01620094  RH  064%=      5-min Rain = 0
KQU1 221541Z 36015G20KT 16/09 A3005 RMK A01 T01610093  RH  064%=      5-min Rain = 0
KQU1 221542Z 36017G23KT 16/09 A3005 RMK A01 T01610094  RH  064%=      5-min Rain = 0
KQU1 221543Z 35012G20KT 16/09 A3005 RMK A01 T01620094  RH  064%=      5-min Rain = 0
KQU1 221544Z 35013G20KT 16/10 A3005 RMK A01 T01630096  RH  064%=      5-min Rain = 0
KQU1 221545Z 35015KT 16/10 A3005 RMK A01 T01640095  RH  064%=      5-min Rain = 0
KQU1 221546Z 35010KT 17/10 A3005 RMK A01 T01650096  RH  064%=      5-min Rain = 0
KQU1 221547Z 35011G19KT 17/10 A3005 RMK A01 T01660097  RH  063%=      5-min Rain = 0
KQU1 221548Z 35017G22KT 17/10 A3005 RMK A01 T01680096  RH  062%=      5-min Rain = 0
KQU1 221549Z 35015KT 17/10 A3005 RMK A01 T01680095  RH  062%=      5-min Rain = 0
KQU1 221550Z 35014G20KT 17/10 A3005 RMK A01 T01680096  RH  062%=      5-min Rain = 0
KQU1 221551Z 35013KT 17/10 A3005 RMK A01 T01680096  RH  062%=      5-min Rain = 0
KQU1 221552Z 34015KT 17/10 A3005 RMK A01 T01690095  RH  062%=      5-min Rain = 0
KQU1 221553Z 34015KT 17/10 A3005 RMK A01 T01690096  RH  062%=      5-min Rain = 0
KQU1 221554Z 35013G18KT 17/10 A3005 RMK A01 T01690095  RH  062%=      5-min Rain = 0
KQU1 221555Z 34014G19KT 17/10 A3005 RMK A01 T01690096  RH  062%=      5-min Rain = 0
KQU1 221556Z 34014G20KT 17/09 A3005 RMK A01 T01680093  RH  061%=      5-min Rain = 0
KQU1 221557Z 35014G20KT 17/09 A3005 RMK A01 T01660094  RH  062%=      5-min Rain = 0
KQU1 221558Z 35013G19KT 17/10 A3005 RMK A01 T01660095  RH  063%=      5-min Rain = 0
KQU1 221559Z 35015G23KT 17/10 A3005 RMK A01 T01660095  RH  063%=      5-min Rain = 0
KQU1 221600Z 00010G17KT 17/10 A3006 RMK A01 T01670097  RH  063%=      5-min Rain = 0
KQU1 221601Z 01010G15KT 17/10 A3006 RMK A01 T01680098  RH  063%=      5-min Rain = 0
KQU1 221602Z 35004KT 17/10 A3006 RMK A01 T01700100  RH  063%=      5-min Rain = 0
KQU1 221603Z 34006KT 17/10 A3006 RMK A01 T01720099  RH  062%=      5-min Rain = 0
KQU1 221604Z 34008G15KT 17/10 A3006 RMK A01 T01740101  RH  062%=      5-min Rain = 0
KQU1 221605Z 36016KT 18/10 A3006 RMK A01 T01750097  RH  060%=      5-min Rain = 0
KQU1 221606Z 01008G18KT 18/10 A3006 RMK A01 T01750099  RH  061%=      5-min Rain = 0
KQU1 221607Z 01006G11KT 18/10 A3006 RMK A01 T01760100  RH  061%=      5-min Rain = 0
KQU1 221608Z 01009G16KT 18/10 A3006 RMK A01 T01760098  RH  060%=      5-min Rain = 0
KQU1 221609Z 35004G11KT 18/10 A3006 RMK A01 T01760100  RH  061%=      5-min Rain = 0
KQU1 221610Z 36008G14KT 18/10 A3006 RMK A01 T01760099  RH  060%=      5-min Rain = 0
KQU1 221611Z 01010G16KT 18/10 A3006 RMK A01 T01750096  RH  060%=      5-min Rain = 0
KQU1 221612Z 35013G20KT 17/10 A3006 RMK A01 T01740095  RH  060%=      5-min Rain = 0
KQU1 221613Z 01009G15KT 17/10 A3006 RMK A01 T01720096  RH  061%=      5-min Rain = 0
KQU1 221614Z 36012KT 17/10 A3006 RMK A01 T01710095  RH  061%=      5-min Rain = 0
KQU1 221615Z 35007G14KT 17/10 A3006 RMK A01 T01710097  RH  062%=      5-min Rain = 0
KQU1 221616Z 00006G11KT 17/10 A3006 RMK A01 T01710099  RH  062%=      5-min Rain = 0
KQU1 221617Z 34007KT 17/10 A3006 RMK A01 T01730100  RH  062%=      5-min Rain = 0
KQU1 221618Z 35011KT 17/10 A3006 RMK A01 T01740099  RH  061%=      5-min Rain = 0
KQU1 221619Z 36008G13KT 18/10 A3006 RMK A01 T01750100  RH  061%=      5-min Rain = 0
KQU1 221620Z 00006KT 18/10 A3006 RMK A01 T01760099  RH  061%=      5-min Rain = 0
KQU1 221621Z 02006G12KT 18/10 A3007 RMK A01 T01770102  RH  061%=      5-min Rain = 0
KQU1 221622Z 02010KT 18/10 A3007 RMK A01 T01780099  RH  060%=      5-min Rain = 0
KQU1 221623Z 02004KT 18/10 A3007 RMK A01 T01770099  RH  060%=      5-min Rain = 0
KQU1 221624Z 02006G13KT 18/10 A3007 RMK A01 T01770102  RH  061%=      5-min Rain = 0
KQU1 221625Z 03007G14KT 18/10 A3007 RMK A01 T01790102  RH  061%=      5-min Rain = 0
KQU1 221626Z 04012KT 18/10 A3007 RMK A01 T01780098  RH  060%=      5-min Rain = 0
KQU1 221627Z 02010KT 18/10 A3007 RMK A01 T01760099  RH  060%=      5-min Rain = 0
KQU1 221628Z 02008KT 18/10 A3007 RMK A01 T01760101  RH  061%=      5-min Rain = 0
KQU1 221629Z 03007G13KT 18/10 A3007 RMK A01 T01770104  RH  062%=      5-min Rain = 0
KQU1 221630Z 03014KT 18/10 A3007 RMK A01 T01780099  RH  060%=      5-min Rain = 0
KQU1 221631Z 03010G15KT 18/10 A3007 RMK A01 T01770100  RH  061%=      5-min Rain = 0
KQU1 221632Z 01010KT 18/10 A3007 RMK A01 T01770102  RH  061%=      5-min Rain = 0
KQU1 221633Z 00008G14KT 18/10 A3007 RMK A01 T01780099  RH  060%=      5-min Rain = 0
KQU1 221634Z 03004G15KT 18/10 A3006 RMK A01 T01790102  RH  061%=      5-min Rain = 0
KQU1 221635Z 04014KT 18/10 A3006 RMK A01 T01800101  RH  060%=      5-min Rain = 0
KQU1 221636Z 03012KT 18/10 A3006 RMK A01 T01790100  RH  060%=      5-min Rain = 0
KQU1 221637Z 02011G16KT 18/10 A3006 RMK A01 T01790100  RH  060%=      5-min Rain = 0
KQU1 221638Z 03010KT 18/10 A3006 RMK A01 T01780099  RH  060%=      5-min Rain = 0
KQU1 221639Z 01005G10KT 18/10 A3006 RMK A01 T01790102  RH  061%=      5-min Rain = 0
KQU1 221640Z 01006G13KT 18/11 A3006 RMK A01 T01810105  RH  061%=      5-min Rain = 0
KQU1 221641Z 02008G14KT 18/10 A3006 RMK A01 T01820102  RH  060%=      5-min Rain = 0
KQU1 221642Z 01009KT 18/10 A3006 RMK A01 T01820102  RH  060%=      5-min Rain = 0
KQU1 221643Z 01007G13KT 18/10 A3006 RMK A01 T01810101  RH  059%=      5-min Rain = 0
KQU1 221644Z 02006G12KT 18/10 A3006 RMK A01 T01810102  RH  060%=      5-min Rain = 0
KQU1 221645Z 02009KT 18/10 A3006 RMK A01 T01820103  RH  060%=      5-min Rain = 0
KQU1 221646Z 00008G15KT 18/10 A3006 RMK A01 T01820102  RH  060%=      5-min Rain = 0
KQU1 221647Z 02010G17KT 18/10 A3006 RMK A01 T01810101  RH  060%=      5-min Rain = 0
KQU1 221648Z 35009G15KT 18/10 A3006 RMK A01 T01800102  RH  060%=      5-min Rain = 0
KQU1 221649Z 35009G15KT 18/10 A3007 RMK A01 T01800102  RH  060%=      5-min Rain = 0
KQU1 221650Z 35011G17KT 18/10 A3006 RMK A01 T01800100  RH  060%=      5-min Rain = 0
KQU1 221651Z 00012G19KT 18/10 A3006 RMK A01 T01800100  RH  060%=      5-min Rain = 0
KQU1 221652Z 01008KT 18/10 A3006 RMK A01 T01790100  RH  060%=      5-min Rain = 0
KQU1 221653Z 36012G17KT 18/10 A3006 RMK A01 T01790100  RH  060%=      5-min Rain = 0
KQU1 221654Z 02010G18KT 18/10 A3006 RMK A01 T01800101  RH  060%=      5-min Rain = 0
KQU1 221655Z 02009G16KT 18/10 A3006 RMK A01 T01800100  RH  060%=      5-min Rain = 0
KQU1 221656Z 35004KT 18/10 A3006 RMK A01 T01800102  RH  060%=      5-min Rain = 0
KQU1 221657Z 35004G14KT 18/11 A3006 RMK A01 T01810105  RH  061%=      5-min Rain = 0
KQU1 221658Z 36011G19KT 18/10 A3006 RMK A01 T01820103  RH  060%=      5-min Rain = 0
KQU1 221659Z 00016KT 18/10 A3006 RMK A01 T01830101  RH  059%=      5-min Rain = 0
KQU1 221700Z 35009KT 18/10 A3006 RMK A01 T01820101  RH  059%=      5-min Rain = 0
KQU1 221701Z 36009G14KT 18/10 A3006 RMK A01 T01820101  RH  059%=      5-min Rain = 0
KQU1 221702Z 01007G15KT 18/10 A3006 RMK A01 T01820102  RH  060%=      5-min Rain = 0
KQU1 221703Z 02010G17KT 18/10 A3006 RMK A01 T01820102  RH  059%=      5-min Rain = 0
KQU1 221704Z 02010G18KT 18/10 A3006 RMK A01 T01810100  RH  059%=      5-min Rain = 0
KQU1 221705Z 03011KT 18/10 A3006 RMK A01 T01800101  RH  060%=      5-min Rain = 0
KQU1 221706Z 03012KT 18/10 A3006 RMK A01 T01800100  RH  060%=      5-min Rain = 0
KQU1 221707Z 03011KT 18/10 A3006 RMK A01 T01800102  RH  060%=      5-min Rain = 0
KQU1 221708Z 02011KT 18/10 A3006 RMK A01 T01800103  RH  061%=      5-min Rain = 0
KQU1 221709Z 02004KT 18/10 A3006 RMK A01 T01810104  RH  061%=      5-min Rain = 0
KQU1 221710Z 01007G12KT 18/10 A3006 RMK A01 T01820104  RH  060%=      5-min Rain = 0
KQU1 221711Z 01005KT 18/10 A3006 RMK A01 T01830103  RH  060%=      5-min Rain = 0
KQU1 221712Z 01009KT 18/10 A3006 RMK A01 T01830102  RH  059%=      5-min Rain = 0
KQU1 221713Z 01007G13KT 18/10 A3006 RMK A01 T01830102  RH  059%=      5-min Rain = 0
KQU1 221714Z 01007G13KT 18/10 A3006 RMK A01 T01840104  RH  060%=      5-min Rain = 0
KQU1 221715Z 01009KT 18/10 A3006 RMK A01 T01840102  RH  059%=      5-min Rain = 0
KQU1 221716Z 03011G16KT 18/10 A3006 RMK A01 T01840102  RH  059%=      5-min Rain = 0
KQU1 221717Z 02008G17KT 18/10 A3006 RMK A01 T01840102  RH  059%=      5-min Rain = 0
KQU1 221718Z 02003G9KT 19/10 A3006 RMK A01 T01850103  RH  059%=      5-min Rain = 0
KQU1 221719Z 03008KT 19/10 A3006 RMK A01 T01860103  RH  058%=      5-min Rain = 0
KQU1 221720Z 01011G19KT 19/10 A3006 RMK A01 T01860103  RH  058%=      5-min Rain = 0
KQU1 221721Z 01010G18KT 19/10 A3005 RMK A01 T01860101  RH  058%=      5-min Rain = 0
KQU1 221722Z 02008G16KT 19/10 A3005 RMK A01 T01850102  RH  058%=      5-min Rain = 0
KQU1 221723Z 02012G18KT 19/10 A3006 RMK A01 T01850101  RH  058%=      5-min Rain = 0
KQU1 221724Z 04013G18KT 18/10 A3005 RMK A01 T01840101  RH  059%=      5-min Rain = 0
KQU1 221725Z 03014G19KT 18/10 A3005 RMK A01 T01830100  RH  058%=      5-min Rain = 0
KQU1 221726Z 02007KT 18/10 A3005 RMK A01 T01830103  RH  060%=      5-min Rain = 0
KQU1 221727Z 01012G17KT 18/10 A3005 RMK A01 T01830101  RH  059%=      5-min Rain = 0
KQU1 221728Z 02008G13KT 18/10 A3005 RMK A01 T01830102  RH  059%=      5-min Rain = 0
KQU1 221729Z 02008KT 18/10 A3005 RMK A01 T01830102  RH  059%=      5-min Rain = 0
KQU1 221730Z 00010G17KT 18/10 A3005 RMK A01 T01830102  RH  059%=      5-min Rain = 0
KQU1 221731Z 01011G17KT 18/10 A3005 RMK A01 T01830101  RH  059%=      5-min Rain = 0
KQU1 221732Z 03009G16KT 18/10 A3005 RMK A01 T01840102  RH  059%=      5-min Rain = 0
KQU1 221733Z 02011G16KT 18/10 A3005 RMK A01 T01830100  RH  058%=      5-min Rain = 0
KQU1 221734Z 01006KT 18/10 A3005 RMK A01 T01830102  RH  059%=      5-min Rain = 0
KQU1 221735Z 01008G23KT 18/10 A3005 RMK A01 T01840104  RH  060%=      5-min Rain = 0
KQU1 221736Z 01010G18KT 19/10 A3005 RMK A01 T01850103  RH  059%=      5-min Rain = 0
KQU1 221737Z 00013G20KT 19/10 A3005 RMK A01 T01850101  RH  058%=      5-min Rain = 0
KQU1 221738Z 01012G21KT 18/10 A3005 RMK A01 T01840100  RH  058%=      5-min Rain = 0
KQU1 221739Z 01009G14KT 18/10 A3005 RMK A01 T01830101  RH  059%=      5-min Rain = 0
KQU1 221740Z 01005G11KT 18/10 A3005 RMK A01 T01840103  RH  059%=      5-min Rain = 0
KQU1 221741Z 01008G15KT 19/10 A3005 RMK A01 T01850103  RH  059%=      5-min Rain = 0
KQU1 221742Z 02012G23KT 19/10 A3005 RMK A01 T01850100  RH  058%=      5-min Rain = 0
KQU1 221743Z 01011G16KT 18/10 A3005 RMK A01 T01840101  RH  058%=      5-min Rain = 0
KQU1 221744Z 36009G14KT 18/10 A3005 RMK A01 T01840101  RH  058%=      5-min Rain = 0
KQU1 221745Z 02012G18KT 18/10 A3005 RMK A01 T01840101  RH  058%=      5-min Rain = 0
KQU1 221746Z 01011KT 18/10 A3005 RMK A01 T01840101  RH  058%=      5-min Rain = 0
KQU1 221747Z 36015KT 18/10 A3005 RMK A01 T01840100  RH  058%=      5-min Rain = 0
KQU1 221748Z 01010G16KT 18/10 A3005 RMK A01 T01840101  RH  059%=      5-min Rain = 0
KQU1 221749Z 02007G15KT 18/10 A3005 RMK A01 T01840102  RH  059%=      5-min Rain = 0
KQU1 221750Z 00008G15KT 19/10 A3005 RMK A01 T01850104  RH  059%=      5-min Rain = 0
KQU1 221751Z 00011G20KT 19/10 A3005 RMK A01 T01860102  RH  058%=      5-min Rain = 0
KQU1 221752Z 36011G19KT 19/10 A3005 RMK A01 T01860101  RH  058%=      5-min Rain = 0
KQU1 221753Z 35009G14KT 19/10 A3005 RMK A01 T01860101  RH  058%=      5-min Rain = 0
KQU1 221754Z 35012G18KT 19/10 A3005 RMK A01 T01860102  RH  058%=      5-min Rain = 0
KQU1 221755Z 01009G16KT 19/10 A3005 RMK A01 T01860102  RH  058%=      5-min Rain = 0
KQU1 221756Z 00012G20KT 19/10 A3005 RMK A01 T01860100  RH  057%=      5-min Rain = 0
KQU1 221757Z 01009G17KT 19/10 A3005 RMK A01 T01850100  RH  058%=      5-min Rain = 0
KQU1 221758Z 36011G19KT 19/10 A3005 RMK A01 T01850101  RH  058%=      5-min Rain = 0
KQU1 221759Z 01008G16KT 19/10 A3005 RMK A01 T01850101  RH  058%=      5-min Rain = 0
KQU1 221800Z 01005KT 19/10 A3005 RMK A01 T01860104  RH  059%=      5-min Rain = 0
KQU1 221801Z 03007G13KT 19/10 A3005 RMK A01 T01860102  RH  058%=      5-min Rain = 0
KQU1 221802Z 01009G20KT 19/10 A3005 RMK A01 T01860102  RH  058%=      5-min Rain = 0
KQU1 221803Z 02008G17KT 19/10 A3005 RMK A01 T01860102  RH  058%=      5-min Rain = 0
KQU1 221804Z 36013G19KT 19/10 A3005 RMK A01 T01860103  RH  058%=      5-min Rain = 0
KQU1 221805Z 36014G21KT 19/10 A3005 RMK A01 T01870101  RH  058%=      5-min Rain = 0
KQU1 221806Z 00011G19KT 19/10 A3005 RMK A01 T01860101  RH  058%=      5-min Rain = 0
KQU1 221807Z 01008G14KT 19/10 A3005 RMK A01 T01850103  RH  059%=      5-min Rain = 0
KQU1 221808Z 01010G15KT 19/10 A3005 RMK A01 T01860102  RH  058%=      5-min Rain = 0
KQU1 221809Z 03012G20KT 19/10 A3005 RMK A01 T01860104  RH  059%=      5-min Rain = 0
KQU1 221810Z 03016G21KT 19/10 A3005 RMK A01 T01860101  RH  058%=      5-min Rain = 0
KQU1 221811Z 02008G14KT 19/10 A3005 RMK A01 T01850103  RH  059%=      5-min Rain = 0
KQU1 221812Z 01010G15KT 19/10 A3005 RMK A01 T01860103  RH  059%=      5-min Rain = 0
KQU1 221813Z 02009G16KT 19/10 A3004 RMK A01 T01860102  RH  058%=      5-min Rain = 0
KQU1 221814Z 00011G18KT 19/10 A3004 RMK A01 T01860102  RH  058%=      5-min Rain = 0
KQU1 221815Z 01009G15KT 19/10 A3004 RMK A01 T01860102  RH  058%=      5-min Rain = 0
KQU1 221816Z 02011G19KT 19/10 A3003 RMK A01 T01870103  RH  058%=      5-min Rain = 0
KQU1 221817Z 02013G19KT 19/10 A3003 RMK A01 T01870103  RH  058%=      5-min Rain = 0
KQU1 221818Z 01015G23KT 19/10 A3003 RMK A01 T01870101  RH  057%=      5-min Rain = 0
KQU1 221819Z 03013G19KT 19/10 A3004 RMK A01 T01860101  RH  058%=      5-min Rain = 0
KQU1 221820Z 02010G15KT 19/10 A3004 RMK A01 T01860101  RH  058%=      5-min Rain = 0
KQU1 221821Z 35007G13KT 19/10 A3005 RMK A01 T01860102  RH  058%=      5-min Rain = 0
KQU1 221822Z 36006KT 19/10 A3005 RMK A01 T01870102  RH  058%=      5-min Rain = 0
KQU1 221823Z 04008G15KT 19/10 A3005 RMK A01 T01880104  RH  058%=      5-min Rain = 0
KQU1 221824Z 02013KT 19/10 A3005 RMK A01 T01890102  RH  057%=      5-min Rain = 0
KQU1 221825Z 02013KT 19/10 A3005 RMK A01 T01880101  RH  057%=      5-min Rain = 0
KQU1 221826Z 02012G17KT 19/10 A3005 RMK A01 T01880103  RH  057%=      5-min Rain = 0
KQU1 221827Z 02012G18KT 19/10 A3005 RMK A01 T01880104  RH  058%=      5-min Rain = 0
KQU1 221828Z 03016G21KT 19/10 A3004 RMK A01 T01890102  RH  057%=      5-min Rain = 0
KQU1 221829Z 02014G19KT 19/10 A3004 RMK A01 T01890104  RH  058%=      5-min Rain = 0
KQU1 221830Z 04017G22KT 19/10 A3004 RMK A01 T01890102  RH  057%=      5-min Rain = 0
KQU1 221831Z 03016KT 19/10 A3003 RMK A01 T01880101  RH  057%=      5-min Rain = 0
KQU1 221832Z 03016G22KT 19/10 A3003 RMK A01 T01870101  RH  057%=      5-min Rain = 0
KQU1 221833Z 02010G18KT 19/10 A3004 RMK A01 T01880104  RH  058%=      5-min Rain = 0
KQU1 221834Z 02009KT 19/11 A3004 RMK A01 T01890105  RH  058%=      5-min Rain = 0
KQU1 221835Z 02011G18KT 19/10 A3004 RMK A01 T01890102  RH  057%=      5-min Rain = 0
KQU1 221836Z 00010G15KT 19/10 A3004 RMK A01 T01890104  RH  057%=      5-min Rain = 0
KQU1 221837Z 36015G20KT 19/10 A3004 RMK A01 T01900102  RH  057%=      5-min Rain = 0
KQU1 221838Z 36011G17KT 19/10 A3005 RMK A01 T01890102  RH  057%=      5-min Rain = 0
KQU1 221839Z 01012G19KT 19/10 A3004 RMK A01 T01890102  RH  057%=      5-min Rain = 0
KQU1 221840Z 02014G19KT 19/10 A3004 RMK A01 T01900102  RH  057%=      5-min Rain = 0
KQU1 221841Z 01008KT 19/11 A3004 RMK A01 T01900105  RH  058%=      5-min Rain = 0
KQU1 221842Z 01013G18KT 19/10 A3004 RMK A01 T01910102  RH  056%=      5-min Rain = 0
KQU1 221843Z 02015G22KT 19/10 A3005 RMK A01 T01900101  RH  056%=      5-min Rain = 0
KQU1 221844Z 01008G14KT 19/10 A3005 RMK A01 T01890102  RH  057%=      5-min Rain = 0
KQU1 221845Z 01012G17KT 19/10 A3005 RMK A01 T01890102  RH  057%=      5-min Rain = 0
KQU1 221846Z 02014G19KT 19/10 A3005 RMK A01 T01890102  RH  057%=      5-min Rain = 0
KQU1 221847Z 03011KT 19/10 A3006 RMK A01 T01900104  RH  057%=      5-min Rain = 0
KQU1 221848Z 01008G13KT 19/10 A3006 RMK A01 T01900103  RH  057%=      5-min Rain = 0
KQU1 221849Z 02008G13KT 19/10 A3006 RMK A01 T01910103  RH  057%=      5-min Rain = 0
KQU1 221850Z 01008KT 19/10 A3007 RMK A01 T01910104  RH  057%=      5-min Rain = 0
KQU1 221851Z 02006G11KT 19/11 A3007 RMK A01 T01910106  RH  058%=      5-min Rain = 0
KQU1 221852Z 36009KT 19/10 A3007 RMK A01 T01910103  RH  056%=      5-min Rain = 0
KQU1 221853Z 36007KT 19/10 A3007 RMK A01 T01910103  RH  057%=      5-min Rain = 0
KQU1 221854Z 01009G15KT 19/10 A3007 RMK A01 T01910104  RH  057%=      5-min Rain = 0
KQU1 221855Z 02013G19KT 19/10 A3007 RMK A01 T01910102  RH  056%=      5-min Rain = 0
KQU1 221856Z 03015KT 19/10 A3006 RMK A01 T01910103  RH  056%=      5-min Rain = 0
KQU1 221857Z 03015KT 19/10 A3006 RMK A01 T01910102  RH  056%=      5-min Rain = 0
KQU1 221858Z 03017G22KT 19/10 A3005 RMK A01 T01910103  RH  057%=      5-min Rain = 0
KQU1 221859Z 03015KT 19/10 A3005 RMK A01 T01910102  RH  056%=      5-min Rain = 0
KQU1 221900Z 03015KT 19/10 A3005 RMK A01 T01900101  RH  056%=      5-min Rain = 0
KQU1 221901Z 03016KT 19/10 A3005 RMK A01 T01900103  RH  057%=      5-min Rain = 0
KQU1 221902Z 04013KT 19/10 A3006 RMK A01 T01900102  RH  057%=      5-min Rain = 0
KQU1 221903Z 04011KT 19/10 A3006 RMK A01 T01900103  RH  057%=      5-min Rain = 0
KQU1 221904Z 04012KT 19/10 A3006 RMK A01 T01910102  RH  056%=      5-min Rain = 0
KQU1 221905Z 04016KT 19/10 A3006 RMK A01 T01910102  RH  056%=      5-min Rain = 0
KQU1 221906Z 03015KT 19/10 A3006 RMK A01 T01900101  RH  056%=      5-min Rain = 0
KQU1 221907Z 03015G23KT 19/10 A3005 RMK A01 T01910103  RH  057%=      5-min Rain = 0
KQU1 221908Z 02017KT 19/10 A3005 RMK A01 T01910103  RH  057%=      5-min Rain = 0
KQU1 221909Z 03016KT 19/10 A3005 RMK A01 T01910103  RH  057%=      5-min Rain = 0
KQU1 221910Z 03013G18KT 19/10 A3005 RMK A01 T01910102  RH  056%=      5-min Rain = 0
KQU1 221911Z 03012G17KT 19/10 A3005 RMK A01 T01910104  RH  057%=      5-min Rain = 0
KQU1 221912Z 01007G15KT 19/11 A3006 RMK A01 T01920106  RH  057%=      5-min Rain = 0
KQU1 221913Z 02009G16KT 19/11 A3006 RMK A01 T01940105  RH  056%=      5-min Rain = 0
KQU1 221914Z 02013KT 19/10 A3006 RMK A01 T01940103  RH  056%=      5-min Rain = 0
KQU1 221915Z 03013G18KT 19/10 A3006 RMK A01 T01940103  RH  056%=      5-min Rain = 0
KQU1 221916Z 02012G17KT 19/10 A3006 RMK A01 T01930103  RH  056%=      5-min Rain = 0
KQU1 221917Z 03014KT 19/10 A3006 RMK A01 T01920103  RH  056%=      5-min Rain = 0
KQU1 221918Z 03013G18KT 19/10 A3006 RMK A01 T01920103  RH  056%=      5-min Rain = 0
KQU1 221919Z 04012KT 19/10 A3006 RMK A01 T01920104  RH  057%=      5-min Rain = 0
KQU1 221920Z 04012KT 19/10 A3007 RMK A01 T01920102  RH  056%=      5-min Rain = 0
KQU1 221921Z 06011KT 19/10 A3007 RMK A01 T01920103  RH  056%=      5-min Rain = 0
KQU1 221922Z 03012G18KT 19/10 A3007 RMK A01 T01920103  RH  056%=      5-min Rain = 0
KQU1 221923Z 03014KT 19/10 A3007 RMK A01 T01920101  RH  056%=      5-min Rain = 0
KQU1 221924Z 02012KT 19/10 A3007 RMK A01 T01910101  RH  056%=      5-min Rain = 0
KQU1 221925Z 03010KT 19/10 A3007 RMK A01 T01900101  RH  056%=      5-min Rain = 0
KQU1 221926Z 03012KT 19/10 A3007 RMK A01 T01900101  RH  057%=      5-min Rain = 0
KQU1 221927Z 04013KT 19/10 A3007 RMK A01 T01890101  RH  057%=      5-min Rain = 0
KQU1 221928Z 04013G18KT 19/10 A3007 RMK A01 T01890102  RH  057%=      5-min Rain = 0
KQU1 221929Z 02011KT 19/10 A3007 RMK A01 T01890101  RH  057%=      5-min Rain = 0
KQU1 221930Z 03012KT 19/10 A3007 RMK A01 T01900103  RH  057%=      5-min Rain = 0
KQU1 221931Z 02008KT 19/10 A3007 RMK A01 T01900103  RH  057%=      5-min Rain = 0
KQU1 221932Z 03010KT 19/10 A3007 RMK A01 T01900102  RH  057%=      5-min Rain = 0
KQU1 221933Z 03011KT 19/10 A3008 RMK A01 T01900102  RH  057%=      5-min Rain = 0
KQU1 221934Z 03009G14KT 19/10 A3008 RMK A01 T01900104  RH  057%=      5-min Rain = 0
KQU1 221935Z 02010G17KT 19/10 A3007 RMK A01 T01900103  RH  057%=      5-min Rain = 0
KQU1 221936Z 03012KT 19/10 A3007 RMK A01 T01900102  RH  056%=      5-min Rain = 0
KQU1 221937Z 01008G14KT 19/10 A3006 RMK A01 T01900103  RH  057%=      5-min Rain = 0
KQU1 221938Z 02014KT 19/10 A3006 RMK A01 T01910104  RH  057%=      5-min Rain = 0
KQU1 221939Z 04015G20KT 19/10 A3006 RMK A01 T01910104  RH  057%=      5-min Rain = 0
KQU1 221940Z 05014KT 19/10 A3006 RMK A01 T01910104  RH  057%=      5-min Rain = 0
KQU1 221941Z 04013KT 19/10 A3006 RMK A01 T01910104  RH  057%=      5-min Rain = 0
KQU1 221942Z 04015KT 19/10 A3006 RMK A01 T01920103  RH  056%=      5-min Rain = 0
KQU1 221943Z 04012G17KT 19/10 A3006 RMK A01 T01920103  RH  056%=      5-min Rain = 0
KQU1 221944Z 02010KT 19/10 A3006 RMK A01 T01920104  RH  057%=      5-min Rain = 0
KQU1 221945Z 02009G15KT 19/10 A3007 RMK A01 T01920104  RH  057%=      5-min Rain = 0
KQU1 221946Z 01008G16KT 19/10 A3007 RMK A01 T01920104  RH  057%=      5-min Rain = 0
KQU1 221947Z 01009G14KT 19/10 A3007 RMK A01 T01920103  RH  056%=      5-min Rain = 0
KQU1 221948Z 03010KT 19/10 A3008 RMK A01 T01930104  RH  057%=      5-min Rain = 0
KQU1 221949Z 03010KT 19/10 A3008 RMK A01 T01920104  RH  056%=      5-min Rain = 0
KQU1 221950Z 03011KT 19/10 A3008 RMK A01 T01920103  RH  056%=      5-min Rain = 0
KQU1 221951Z 04010KT 19/10 A3008 RMK A01 T01920103  RH  056%=      5-min Rain = 0
KQU1 221952Z 03013KT 19/10 A3007 RMK A01 T01910103  RH  057%=      5-min Rain = 0
KQU1 221953Z 03013G18KT 19/10 A3007 RMK A01 T01910104  RH  057%=      5-min Rain = 0
KQU1 221954Z 04017KT 19/10 A3007 RMK A01 T01900102  RH  056%=      5-min Rain = 0
KQU1 221955Z 03013KT 19/10 A3006 RMK A01 T01900102  RH  057%=      5-min Rain = 0
KQU1 221956Z 03010KT 19/10 A3006 RMK A01 T01890104  RH  058%=      5-min Rain = 0
KQU1 221957Z 04012KT 19/10 A3006 RMK A01 T01890104  RH  057%=      5-min Rain = 0
KQU1 221958Z 05013KT 19/10 A3006 RMK A01 T01900104  RH  058%=      5-min Rain = 0
KQU1 221959Z 04015KT 19/10 A3006 RMK A01 T01900103  RH  057%=      5-min Rain = 0
KQU1 222000Z 04015KT 19/10 A3006 RMK A01 T01890102  RH  057%=      5-min Rain = 0
KQU1 222001Z 04013G18KT 19/10 A3006 RMK A01 T01890104  RH  058%=      5-min Rain = 0
KQU1 222002Z 03009KT 19/11 A3006 RMK A01 T01890105  RH  058%=      5-min Rain = 0
KQU1 222003Z 05008G13KT 19/11 A3006 RMK A01 T01900106  RH  058%=      5-min Rain = 0
KQU1 222004Z 06008KT 19/11 A3007 RMK A01 T01900107  RH  058%=      5-min Rain = 0
KQU1 222005Z 04007KT 19/11 A3007 RMK A01 T01910108  RH  059%=      5-min Rain = 0
KQU1 222006Z 04009G15KT 19/11 A3007 RMK A01 T01910107  RH  058%=      5-min Rain = 0
KQU1 222007Z 04012KT 19/11 A3006 RMK A01 T01910105  RH  057%=      5-min Rain = 0
KQU1 222008Z 04011KT 19/11 A3006 RMK A01 T01910107  RH  058%=      5-min Rain = 0
KQU1 222009Z 04012KT 19/11 A3005 RMK A01 T01910108  RH  058%=      5-min Rain = 0
KQU1 222010Z 03010KT 19/11 A3005 RMK A01 T01910109  RH  059%=      5-min Rain = 0
KQU1 222011Z 04011G20KT 19/11 A3005 RMK A01 T01920108  RH  058%=      5-min Rain = 0
KQU1 222012Z 04012G17KT 19/11 A3005 RMK A01 T01920106  RH  058%=      5-min Rain = 0
KQU1 222013Z 04011KT 19/11 A3005 RMK A01 T01920107  RH  058%=      5-min Rain = 0
KQU1 222014Z 05011KT 19/11 A3006 RMK A01 T01930106  RH  057%=      5-min Rain = 0
KQU1 222015Z 05009KT 19/11 A3006 RMK A01 T01930106  RH  057%=      5-min Rain = 0
KQU1 222016Z 04012KT 19/11 A3006 RMK A01 T01930106  RH  057%=      5-min Rain = 0
KQU1 222017Z 04014KT 19/11 A3006 RMK A01 T01930105  RH  057%=      5-min Rain = 0
KQU1 222018Z 03014KT 19/11 A3005 RMK A01 T01930106  RH  057%=      5-min Rain = 0
KQU1 222019Z 02012KT 19/11 A3005 RMK A01 T01920105  RH  057%=      5-min Rain = 0
KQU1 222020Z 04014KT 19/11 A3005 RMK A01 T01920105  RH  057%=      5-min Rain = 0
KQU1 222021Z 04015G22KT 19/10 A3005 RMK A01 T01920104  RH  057%=      5-min Rain = 0
KQU1 222022Z 05014G19KT 19/10 A3006 RMK A01 T01920104  RH  057%=      5-min Rain = 0
KQU1 222023Z 05012KT 19/10 A3006 RMK A01 T01920104  RH  057%=      5-min Rain = 0
KQU1 222024Z 04015KT 19/10 A3006 RMK A01 T01920104  RH  057%=      5-min Rain = 0
KQU1 222025Z 05013G19KT 19/10 A3006 RMK A01 T01920104  RH  057%=      5-min Rain = 0
KQU1 222026Z 05013KT 19/10 A3006 RMK A01 T01910104  RH  057%=      5-min Rain = 0
KQU1 222027Z 04014KT 19/10 A3006 RMK A01 T01910104  RH  057%=      5-min Rain = 0
KQU1 222028Z 03011G16KT 19/11 A3006 RMK A01 T01910105  RH  057%=      5-min Rain = 0
KQU1 222029Z 03014G19KT 19/11 A3006 RMK A01 T01910105  RH  057%=      5-min Rain = 0
KQU1 222030Z 03014KT 19/11 A3005 RMK A01 T01910105  RH  057%=      5-min Rain = 0
KQU1 222031Z 03012G17KT 19/11 A3005 RMK A01 T01900105  RH  058%=      5-min Rain = 0
KQU1 222032Z 02008G13KT 19/11 A3005 RMK A01 T01900105  RH  058%=      5-min Rain = 0
KQU1 222033Z 03006G13KT 19/11 A3006 RMK A01 T01900105  RH  058%=      5-min Rain = 0
KQU1 222034Z 03011KT 19/11 A3006 RMK A01 T01900105  RH  058%=      5-min Rain = 0
KQU1 222035Z 04008KT 19/10 A3006 RMK A01 T01900104  RH  058%=      5-min Rain = 0
KQU1 222036Z 05006KT 19/11 A3007 RMK A01 T01900105  RH  058%=      5-min Rain = 0
KQU1 222037Z 05008KT 19/11 A3007 RMK A01 T01900105  RH  058%=      5-min Rain = 0
KQU1 222038Z 05007KT 19/11 A3007 RMK A01 T01900105  RH  058%=      5-min Rain = 0
KQU1 222039Z 06006KT 19/11 A3008 RMK A01 T01900106  RH  058%=      5-min Rain = 0
KQU1 222040Z 04005G10KT 19/11 A3008 RMK A01 T01910106  RH  058%=      5-min Rain = 0
KQU1 222041Z 06007G13KT 19/11 A3008 RMK A01 T01910106  RH  058%=      5-min Rain = 0
KQU1 222042Z 05011KT 19/11 A3008 RMK A01 T01900107  RH  058%=      5-min Rain = 0
KQU1 222043Z 04008KT 19/11 A3008 RMK A01 T01900107  RH  059%=      5-min Rain = 0
KQU1 222044Z 04009KT 19/11 A3007 RMK A01 T01900108  RH  059%=      5-min Rain = 0
KQU1 222045Z 04011KT 19/11 A3007 RMK A01 T01890108  RH  059%=      5-min Rain = 0
KQU1 222046Z 02012G17KT 19/11 A3006 RMK A01 T01890108  RH  059%=      5-min Rain = 0
KQU1 222047Z 02013KT 19/11 A3005 RMK A01 T01890108  RH  059%=      5-min Rain = 0
KQU1 222048Z 03013KT 19/11 A3005 RMK A01 T01890109  RH  060%=      5-min Rain = 0
KQU1 222049Z 03012KT 19/11 A3005 RMK A01 T01890110  RH  060%=      5-min Rain = 0
KQU1 222050Z 04013G18KT 19/11 A3004 RMK A01 T01890108  RH  059%=      5-min Rain = 0
KQU1 222051Z 04017KT 19/11 A3004 RMK A01 T01890108  RH  059%=      5-min Rain = 0
KQU1 222052Z 04017KT 19/11 A3004 RMK A01 T01900107  RH  059%=      5-min Rain = 0
KQU1 222053Z 04016KT 19/11 A3004 RMK A01 T01900107  RH  059%=      5-min Rain = 0
KQU1 222054Z 03017G22KT 19/11 A3004 RMK A01 T01900106  RH  058%=      5-min Rain = 0
KQU1 222055Z 04016G22KT 19/11 A3004 RMK A01 T01900106  RH  058%=      5-min Rain = 0
KQU1 222056Z 04014KT 19/11 A3004 RMK A01 T01910106  RH  058%=      5-min Rain = 0
KQU1 222057Z 04016KT 19/11 A3004 RMK A01 T01910106  RH  058%=      5-min Rain = 0
KQU1 222058Z 04015KT 19/11 A3004 RMK A01 T01910106  RH  058%=      5-min Rain = 0
KQU1 222059Z 04017G22KT 19/11 A3004 RMK A01 T01920106  RH  058%=      5-min Rain = 0
KQU1 222100Z 03019KT 19/11 A3004 RMK A01 T01920106  RH  057%=      5-min Rain = 0
KQU1 222101Z 04021G26KT 19/11 A3003 RMK A01 T01920105  RH  057%=      5-min Rain = 0
KQU1 222102Z 03019G24KT 19/11 A3002 RMK A01 T01920106  RH  058%=      5-min Rain = 0
KQU1 222103Z 03019KT 19/11 A3002 RMK A01 T01920108  RH  058%=      5-min Rain = 0
KQU1 222104Z 03019KT 19/11 A3002 RMK A01 T01920106  RH  057%=      5-min Rain = 0
KQU1 222105Z 04019KT 19/11 A3002 RMK A01 T01920106  RH  057%=      5-min Rain = 0
KQU1 222106Z 04014G20KT 19/11 A3003 RMK A01 T01920107  RH  058%=      5-min Rain = 0
KQU1 222107Z 04016G22KT 19/11 A3003 RMK A01 T01920107  RH  058%=      5-min Rain = 0
KQU1 222108Z 04017KT 19/11 A3004 RMK A01 T01920106  RH  057%=      5-min Rain = 0
KQU1 222109Z 04015KT 19/11 A3004 RMK A01 T01920105  RH  057%=      5-min Rain = 0
KQU1 222110Z 06011G17KT 19/11 A3005 RMK A01 T01920107  RH  058%=      5-min Rain = 0
KQU1 222111Z 04010KT 19/11 A3006 RMK A01 T01920108  RH  058%=      5-min Rain = 0
KQU1 222112Z 06010G15KT 19/11 A3006 RMK A01 T01930108  RH  058%=      5-min Rain = 0
KQU1 222113Z 05012KT 19/11 A3006 RMK A01 T01930107  RH  058%=      5-min Rain = 0
KQU1 222114Z 07012G18KT 19/11 A3006 RMK A01 T01930109  RH  058%=      5-min Rain = 0
KQU1 222115Z 07013G20KT 19/11 A3006 RMK A01 T01930108  RH  058%=      5-min Rain = 0
KQU1 222116Z 06014KT 19/11 A3006 RMK A01 T01940108  RH  058%=      5-min Rain = 0
KQU1 222117Z 08014KT 19/11 A3006 RMK A01 T01930108  RH  058%=      5-min Rain = 0
KQU1 222118Z 07012KT 19/11 A3006 RMK A01 T01930109  RH  058%=      5-min Rain = 0
KQU1 222119Z 06011KT 19/11 A3006 RMK A01 T01940110  RH  058%=      5-min Rain = 0
KQU1 222120Z 06011KT 19/11 A3007 RMK A01 T01940110  RH  058%=      5-min Rain = 0
KQU1 222121Z 05009KT 19/11 A3007 RMK A01 T01940109  RH  058%=      5-min Rain = 0
KQU1 222122Z 05010KT 19/11 A3006 RMK A01 T01940108  RH  058%=      5-min Rain = 0
KQU1 222123Z 04008KT 19/11 A3006 RMK A01 T01930108  RH  058%=      5-min Rain = 0
KQU1 222124Z 03010KT 19/11 A3006 RMK A01 T01930108  RH  058%=      5-min Rain = 0
KQU1 222125Z 03010KT 19/11 A3006 RMK A01 T01920108  RH  058%=      5-min Rain = 0
KQU1 222126Z 03010KT 19/11 A3006 RMK A01 T01920110  RH  059%=      5-min Rain = 0
KQU1 222127Z 03010KT 19/11 A3006 RMK A01 T01920109  RH  058%=      5-min Rain = 0
KQU1 222128Z 02010G15KT 19/11 A3006 RMK A01 T01920109  RH  059%=      5-min Rain = 0
KQU1 222129Z 03009KT 19/11 A3007 RMK A01 T01920109  RH  058%=      5-min Rain = 0
KQU1 222130Z 04007KT 19/11 A3007 RMK A01 T01920108  RH  058%=      5-min Rain = 0
KQU1 222131Z 04010KT 19/11 A3007 RMK A01 T01920109  RH  058%=      5-min Rain = 0
KQU1 222132Z 04011G16KT 19/11 A3007 RMK A01 T01920109  RH  058%=      5-min Rain = 0
KQU1 222133Z 04011KT 19/11 A3007 RMK A01 T01920108  RH  058%=      5-min Rain = 0
KQU1 222134Z 03012KT 19/11 A3007 RMK A01 T01920107  RH  058%=      5-min Rain = 0
KQU1 222135Z 03012KT 19/11 A3007 RMK A01 T01920108  RH  058%=      5-min Rain = 0
KQU1 222136Z 03011KT 19/11 A3007 RMK A01 T01920108  RH  058%=      5-min Rain = 0
KQU1 222137Z 04012KT 19/11 A3006 RMK A01 T01920108  RH  058%=      5-min Rain = 0
KQU1 222138Z 04011KT 19/11 A3006 RMK A01 T01920108  RH  058%=      5-min Rain = 0
KQU1 222139Z 03011G16KT 19/11 A3006 RMK A01 T01920109  RH  058%=      5-min Rain = 0
KQU1 222140Z 02012KT 19/11 A3007 RMK A01 T01920107  RH  058%=      5-min Rain = 0
KQU1 222141Z 03009G14KT 19/11 A3007 RMK A01 T01920107  RH  058%=      5-min Rain = 0
KQU1 222142Z 03013KT 19/11 A3007 RMK A01 T01920107  RH  058%=      5-min Rain = 0
KQU1 222143Z 03010G15KT 19/11 A3007 RMK A01 T01920107  RH  058%=      5-min Rain = 0
KQU1 222144Z 03008KT 19/11 A3006 RMK A01 T01920109  RH  059%=      5-min Rain = 0
KQU1 222145Z 03009KT 19/11 A3006 RMK A01 T01920109  RH  059%=      5-min Rain = 0
KQU1 222146Z 03009KT 19/11 A3006 RMK A01 T01920109  RH  059%=      5-min Rain = 0
KQU1 222147Z 03007KT 19/11 A3006 RMK A01 T01920110  RH  059%=      5-min Rain = 0
KQU1 222148Z 02011G16KT 19/11 A3006 RMK A01 T01920109  RH  059%=      5-min Rain = 0
KQU1 222149Z 03013KT 19/11 A3006 RMK A01 T01910109  RH  059%=      5-min Rain = 0
KQU1 222150Z 02011KT 19/11 A3006 RMK A01 T01910109  RH  059%=      5-min Rain = 0
KQU1 222151Z 02014KT 19/11 A3005 RMK A01 T01910109  RH  059%=      5-min Rain = 0
KQU1 222152Z 03011KT 19/11 A3005 RMK A01 T01910109  RH  059%=      5-min Rain = 0
KQU1 222153Z 03012G17KT 19/11 A3006 RMK A01 T01910110  RH  059%=      5-min Rain = 0
KQU1 222154Z 03010KT 19/11 A3006 RMK A01 T01910110  RH  059%=      5-min Rain = 0
KQU1 222155Z 03009KT 19/11 A3007 RMK A01 T01910109  RH  059%=      5-min Rain = 0
KQU1 222156Z 04008KT 19/11 A3007 RMK A01 T01910108  RH  059%=      5-min Rain = 0
KQU1 222157Z 05006KT 19/11 A3007 RMK A01 T01900109  RH  059%=      5-min Rain = 0
KQU1 222158Z 06005KT 19/11 A3007 RMK A01 T01900110  RH  059%=      5-min Rain = 0
KQU1 222159Z 04004KT 19/11 A3008 RMK A01 T01900111  RH  060%=      5-min Rain = 0
KQU1 222200Z 04004KT 19/11 A3007 RMK A01 T01900112  RH  060%=      5-min Rain = 0
KQU1 222201Z 05008KT 19/11 A3007 RMK A01 T01900111  RH  060%=      5-min Rain = 0
KQU1 222202Z 03006KT 19/11 A3007 RMK A01 T01900111  RH  060%=      5-min Rain = 0
KQU1 222203Z 04007KT 19/11 A3007 RMK A01 T01890111  RH  061%=      5-min Rain = 0
KQU1 222204Z 03007KT 19/11 A3007 RMK A01 T01890111  RH  061%=      5-min Rain = 0
KQU1 222205Z 04009KT 19/11 A3007 RMK A01 T01890111  RH  061%=      5-min Rain = 0
KQU1 222206Z 04011KT 19/11 A3006 RMK A01 T01890111  RH  061%=      5-min Rain = 0
KQU1 222207Z 04010G15KT 19/11 A3006 RMK A01 T01890111  RH  061%=      5-min Rain = 0
KQU1 222208Z 04014KT 19/11 A3006 RMK A01 T01880110  RH  060%=      5-min Rain = 0
KQU1 222209Z 03013KT 19/11 A3005 RMK A01 T01880110  RH  060%=      5-min Rain = 0
KQU1 222210Z 03013KT 19/11 A3005 RMK A01 T01880111  RH  061%=      5-min Rain = 0
KQU1 222211Z 04012KT 19/11 A3005 RMK A01 T01880111  RH  061%=      5-min Rain = 0
KQU1 222212Z 04013KT 19/11 A3005 RMK A01 T01880110  RH  060%=      5-min Rain = 0
KQU1 222213Z 03014KT 19/11 A3005 RMK A01 T01880111  RH  061%=      5-min Rain = 0
KQU1 222214Z 03013KT 19/11 A3005 RMK A01 T01880111  RH  061%=      5-min Rain = 0
KQU1 222215Z 03011KT 19/11 A3005 RMK A01 T01880111  RH  061%=      5-min Rain = 0
KQU1 222216Z 03013G18KT 19/11 A3005 RMK A01 T01880110  RH  060%=      5-min Rain = 0
KQU1 222217Z 04014KT 19/11 A3005 RMK A01 T01880110  RH  060%=      5-min Rain = 0
KQU1 222218Z 03013KT 19/11 A3005 RMK A01 T01880110  RH  061%=      5-min Rain = 0
KQU1 222219Z 03014KT 19/11 A3005 RMK A01 T01880110  RH  060%=      5-min Rain = 0
KQU1 222220Z 03014KT 19/11 A3005 RMK A01 T01880110  RH  060%=      5-min Rain = 0
KQU1 222221Z 04013KT 19/11 A3005 RMK A01 T01880110  RH  060%=      5-min Rain = 0
KQU1 222222Z 04010KT 19/11 A3005 RMK A01 T01880111  RH  061%=      5-min Rain = 0
KQU1 222223Z 04012G17KT 19/11 A3005 RMK A01 T01890110  RH  060%=      5-min Rain = 0
KQU1 222224Z 03011KT 19/11 A3005 RMK A01 T01890111  RH  061%=      5-min Rain = 0
KQU1 222225Z 03012KT 19/11 A3005 RMK A01 T01890111  RH  061%=      5-min Rain = 0
KQU1 222226Z 04012KT 19/11 A3005 RMK A01 T01890110  RH  060%=      5-min Rain = 0
KQU1 222227Z 04014KT 19/11 A3005 RMK A01 T01890109  RH  060%=      5-min Rain = 0
KQU1 222228Z 04011KT 19/11 A3005 RMK A01 T01890110  RH  060%=      5-min Rain = 0
KQU1 222229Z 03013KT 19/11 A3004 RMK A01 T01890111  RH  061%=      5-min Rain = 0
KQU1 222230Z 03011G16KT 19/11 A3004 RMK A01 T01890110  RH  060%=      5-min Rain = 0
KQU1 222231Z 03013G18KT 19/11 A3004 RMK A01 T01890111  RH  061%=      5-min Rain = 0
KQU1 222232Z 03014G19KT 19/11 A3004 RMK A01 T01890110  RH  060%=      5-min Rain = 0
KQU1 222233Z 04012KT 19/11 A3004 RMK A01 T01890111  RH  061%=      5-min Rain = 0
KQU1 222234Z 05013KT 19/11 A3004 RMK A01 T01890111  RH  061%=      5-min Rain = 0
KQU1 222235Z 05011KT 19/11 A3005 RMK A01 T01890111  RH  061%=      5-min Rain = 0
KQU1 222236Z 05010G16KT 19/11 A3006 RMK A01 T01890111  RH  061%=      5-min Rain = 0
KQU1 222237Z 05013KT 19/11 A3006 RMK A01 T01890110  RH  060%=      5-min Rain = 0
KQU1 222238Z 05009KT 19/11 A3007 RMK A01 T01890110  RH  060%=      5-min Rain = 0
KQU1 222239Z 06008KT 19/11 A3007 RMK A01 T01890110  RH  060%=      5-min Rain = 0
KQU1 222240Z 05006KT 19/11 A3007 RMK A01 T01890111  RH  061%=      5-min Rain = 0
KQU1 222241Z 05006KT 19/11 A3008 RMK A01 T01890111  RH  061%=      5-min Rain = 0
KQU1 222242Z 06007KT 19/11 A3008 RMK A01 T01890111  RH  061%=      5-min Rain = 0
KQU1 222243Z 05008KT 19/11 A3007 RMK A01 T01880112  RH  061%=      5-min Rain = 0
KQU1 222244Z 07011KT 19/11 A3007 RMK A01 T01880111  RH  061%=      5-min Rain = 0
KQU1 222245Z 06010KT 19/11 A3007 RMK A01 T01880112  RH  061%=      5-min Rain = 0
KQU1 222246Z 05008KT 19/11 A3007 RMK A01 T01880112  RH  061%=      5-min Rain = 0
KQU1 222247Z 06012KT 19/11 A3007 RMK A01 T01880112  RH  061%=      5-min Rain = 0
KQU1 222248Z 06011KT 19/11 A3007 RMK A01 T01880112  RH  061%=      5-min Rain = 0
KQU1 222249Z 05010KT 19/11 A3006 RMK A01 T01880112  RH  061%=      5-min Rain = 0
KQU1 222250Z 04012KT 19/11 A3006 RMK A01 T01870112  RH  062%=      5-min Rain = 0
KQU1 222251Z 03013KT 19/11 A3005 RMK A01 T01870113  RH  062%=      5-min Rain = 0
KQU1 222252Z 04016KT 19/11 A3005 RMK A01 T01870114  RH  063%=      5-min Rain = 0
KQU1 222253Z 04016KT 19/12 A3004 RMK A01 T01860117  RH  064%=      5-min Rain = 0
KQU1 222254Z 04017KT 19/12 A3003 RMK A01 T01860117  RH  064%=      5-min Rain = 0
KQU1 222255Z 03015G20KT 19/12 A3003 RMK A01 T01850117  RH  064%=      5-min Rain = 0
KQU1 222256Z 03011G16KT 19/12 A3003 RMK A01 T01850118  RH  065%=      5-min Rain = 0
KQU1 222257Z 03011G17KT 19/12 A3003 RMK A01 T01850119  RH  065%=      5-min Rain = 0
KQU1 222258Z 03012KT 19/12 A3004 RMK A01 T01850118  RH  065%=      5-min Rain = 0
KQU1 222259Z 03010KT 19/12 A3004 RMK A01 T01850118  RH  065%=      5-min Rain = 0
KQU1 222300Z 04009KT 19/12 A3005 RMK A01 T01850118  RH  065%=      5-min Rain = 0
KQU1 222301Z 05007KT 19/12 A3006 RMK A01 T01850119  RH  065%=      5-min Rain = 0
KQU1 222302Z 05004KT 19/12 A3007 RMK A01 T01850118  RH  065%=      5-min Rain = 0
KQU1 222303Z 07005KT 19/12 A3007 RMK A01 T01850120  RH  066%=      5-min Rain = 0
KQU1 222304Z 07004KT 19/12 A3008 RMK A01 T01850119  RH  065%=      5-min Rain = 0
KQU1 222305Z 11004KT 19/12 A3008 RMK A01 T01850120  RH  066%=      5-min Rain = 0
KQU1 222306Z 11005KT 19/12 A3008 RMK A01 T01850120  RH  066%=      5-min Rain = 0
KQU1 222307Z 11006KT 19/12 A3009 RMK A01 T01850120  RH  066%=      5-min Rain = 0
KQU1 222308Z 10006KT 19/12 A3009 RMK A01 T01850120  RH  066%=      5-min Rain = 0
KQU1 222309Z 08007KT 18/12 A3009 RMK A01 T01840118  RH  065%=      5-min Rain = 0
KQU1 222310Z 09006KT 18/12 A3009 RMK A01 T01840119  RH  066%=      5-min Rain = 0
KQU1 222311Z 09005KT 18/12 A3009 RMK A01 T01840120  RH  066%=      5-min Rain = 0
KQU1 222312Z 09006KT 18/12 A3009 RMK A01 T01840121  RH  067%=      5-min Rain = 0
KQU1 222313Z 09006KT 18/12 A3009 RMK A01 T01840121  RH  067%=      5-min Rain = 0
KQU1 222314Z 09005KT 18/12 A3009 RMK A01 T01830122  RH  067%=      5-min Rain = 0
KQU1 222315Z 08005KT 18/12 A3009 RMK A01 T01830123  RH  068%=      5-min Rain = 0
KQU1 222316Z 07005KT 18/12 A3009 RMK A01 T01830124  RH  068%=      5-min Rain = 0
KQU1 222317Z 06005KT 18/12 A3009 RMK A01 T01830124  RH  069%=      5-min Rain = 0
KQU1 222318Z 04003KT 18/13 A3009 RMK A01 T01820125  RH  069%=      5-min Rain = 0
KQU1 222319Z 03005KT 18/12 A3009 RMK A01 T01820124  RH  069%=      5-min Rain = 0
KQU1 222320Z 02004KT 18/13 A3009 RMK A01 T01820125  RH  070%=      5-min Rain = 0
KQU1 222321Z 02003KT 18/13 A3009 RMK A01 T01810126  RH  070%=      5-min Rain = 0
KQU1 222322Z 02004KT 18/13 A3009 RMK A01 T01810126  RH  070%=      5-min Rain = 0
KQU1 222323Z 04004KT 18/13 A3009 RMK A01 T01800127  RH  071%=      5-min Rain = 0
KQU1 222324Z 05003KT 18/13 A3009 RMK A01 T01800127  RH  071%=      5-min Rain = 0
KQU1 222325Z 04003KT 18/13 A3009 RMK A01 T01790127  RH  071%=      5-min Rain = 0
KQU1 222326Z 04003KT 18/13 A3009 RMK A01 T01790125  RH  071%=      5-min Rain = 0
KQU1 222327Z 02002KT 18/13 A3009 RMK A01 T01790126  RH  071%=      5-min Rain = 0
KQU1 222328Z 01001KT 18/13 A3009 RMK A01 T01780126  RH  071%=      5-min Rain = 0
KQU1 222329Z 00001KT 18/13 A3009 RMK A01 T01780126  RH  072%=      5-min Rain = 0
KQU1 222330Z 03003KT 18/13 A3009 RMK A01 T01780127  RH  072%=      5-min Rain = 0
KQU1 222331Z 03002KT 18/13 A3009 RMK A01 T01780128  RH  073%=      5-min Rain = 0
KQU1 222332Z 34002KT 18/13 A3009 RMK A01 T01780129  RH  073%=      5-min Rain = 0
KQU1 222333Z 02002KT 18/13 A3009 RMK A01 T01770129  RH  073%=      5-min Rain = 0
KQU1 222334Z 35002KT 18/13 A3009 RMK A01 T01770129  RH  073%=      5-min Rain = 0
KQU1 222335Z 00002KT 18/13 A3009 RMK A01 T01770129  RH  073%=      5-min Rain = 0
KQU1 222336Z 01002KT 18/13 A3009 RMK A01 T01760127  RH  073%=      5-min Rain = 0
KQU1 222337Z 35002KT 18/13 A3009 RMK A01 T01760127  RH  073%=      5-min Rain = 0
KQU1 222338Z 00003KT 18/13 A3009 RMK A01 T01760127  RH  073%=      5-min Rain = 0
KQU1 222339Z 00005KT 18/13 A3009 RMK A01 T01750125  RH  072%=      5-min Rain = 0
KQU1 222340Z 00004KT 18/12 A3009 RMK A01 T01750124  RH  072%=      5-min Rain = 0
KQU1 222341Z 00005KT 18/13 A3008 RMK A01 T01750125  RH  072%=      5-min Rain = 0
KQU1 222342Z 00005KT 18/12 A3008 RMK A01 T01750124  RH  072%=      5-min Rain = 0
KQU1 222343Z 01007KT 17/12 A3008 RMK A01 T01740122  RH  071%=      5-min Rain = 0
KQU1 222344Z 02005KT 17/12 A3008 RMK A01 T01740123  RH  072%=      5-min Rain = 0
KQU1 222345Z 35005KT 17/13 A3008 RMK A01 T01740125  RH  073%=      5-min Rain = 0
KQU1 222346Z 36007KT 17/12 A3008 RMK A01 T01740123  RH  072%=      5-min Rain = 0
KQU1 222347Z 00005KT 17/12 A3008 RMK A01 T01730124  RH  073%=      5-min Rain = 0
KQU1 222348Z 36004KT 17/13 A3008 RMK A01 T01730125  RH  073%=      5-min Rain = 0
KQU1 222349Z 35003KT 17/13 A3008 RMK A01 T01730125  RH  073%=      5-min Rain = 0
KQU1 222350Z 01004KT 17/13 A3008 RMK A01 T01720126  RH  074%=      5-min Rain = 0
KQU1 222351Z 01003KT 17/13 A3008 RMK A01 T01720126  RH  074%=      5-min Rain = 0
KQU1 222352Z 36004KT 17/13 A3008 RMK A01 T01720126  RH  075%=      5-min Rain = 0
KQU1 222353Z 01005KT 17/13 A3007 RMK A01 T01710127  RH  075%=      5-min Rain = 0
KQU1 222354Z 01005KT 17/13 A3007 RMK A01 T01710127  RH  075%=      5-min Rain = 0
KQU1 222355Z 01007KT 17/13 A3007 RMK A01 T01710126  RH  075%=      5-min Rain = 0
KQU1 222356Z 36004KT 17/13 A3007 RMK A01 T01700127  RH  076%=      5-min Rain = 0
KQU1 222357Z 00006KT 17/13 A3007 RMK A01 T01700127  RH  075%=      5-min Rain = 0
KQU1 222358Z 02005KT 17/13 A3007 RMK A01 T01700127  RH  076%=      5-min Rain = 0
KQU1 222359Z 35005KT 17/13 A3007 RMK A01 T01700127  RH  076%=      5-min Rain = 0
KQU1 230000Z 36005KT 17/13 A3007 RMK A01 T01690127  RH  076%=      5-min Rain = 0
KQU1 230001Z 01004KT 17/13 A3007 RMK A01 T01690127  RH  076%=      5-min Rain = 0
KQU1 230002Z 36008KT 17/13 A3007 RMK A01 T01690125  RH  075%=      5-min Rain = 0
KQU1 230003Z 01007G12KT 17/12 A3007 RMK A01 T01690124  RH  075%=      5-min Rain = 0
KQU1 230004Z 02003G8KT 17/13 A3006 RMK A01 T01680126  RH  076%=      5-min Rain = 0
KQU1 230005Z 01008G13KT 17/13 A3006 RMK A01 T01680125  RH  075%=      5-min Rain = 0
KQU1 230006Z 01009KT 17/12 A3006 RMK A01 T01680124  RH  075%=      5-min Rain = 0
KQU1 230007Z 00009G14KT 17/13 A3006 RMK A01 T01680125  RH  076%=      5-min Rain = 0
KQU1 230008Z 01008G14KT 17/12 A3006 RMK A01 T01670124  RH  075%=      5-min Rain = 0
KQU1 230009Z 36006KT 17/12 A3006 RMK A01 T01670124  RH  076%=      5-min Rain = 0
KQU1 230010Z 02006G12KT 17/12 A3006 RMK A01 T01670124  RH  076%=      5-min Rain = 0
KQU1 230011Z 02007G12KT 17/13 A3006 RMK A01 T01670125  RH  076%=      5-min Rain = 0
KQU1 230012Z 02007KT 17/13 A3006 RMK A01 T01670125  RH  076%=      5-min Rain = 0
KQU1 230013Z 01006KT 17/12 A3007 RMK A01 T01660124  RH  076%=      5-min Rain = 0
KQU1 230014Z 02004G10KT 17/13 A3007 RMK A01 T01660125  RH  076%=      5-min Rain = 0
KQU1 230015Z 01007KT 17/12 A3007 RMK A01 T01660123  RH  076%=      5-min Rain = 0
KQU1 230016Z 02004KT 17/12 A3007 RMK A01 T01660124  RH  076%=      5-min Rain = 0
KQU1 230017Z 02006KT 17/12 A3007 RMK A01 T01660124  RH  076%=      5-min Rain = 0
KQU1 230018Z 02007KT 17/12 A3007 RMK A01 T01650124  RH  077%=      5-min Rain = 0
KQU1 230019Z 02006KT 17/12 A3007 RMK A01 T01650124  RH  077%=      5-min Rain = 0
KQU1 230020Z 02005G10KT 17/13 A3007 RMK A01 T01650125  RH  077%=      5-min Rain = 0
KQU1 230021Z 01006KT 16/12 A3007 RMK A01 T01640124  RH  077%=      5-min Rain = 0
KQU1 230022Z 02005KT 16/12 A3007 RMK A01 T01640124  RH  077%=      5-min Rain = 0
KQU1 230023Z 02004KT 16/12 A3007 RMK A01 T01640124  RH  077%=      5-min Rain = 0
KQU1 230024Z 03003KT 16/12 A3008 RMK A01 T01640124  RH  077%=      5-min Rain = 0
KQU1 230025Z 35003KT 16/12 A3008 RMK A01 T01640124  RH  077%=      5-min Rain = 0
KQU1 230026Z 03002KT 16/12 A3008 RMK A01 T01640124  RH  077%=      5-min Rain = 0
KQU1 230027Z 03003KT 16/12 A3008 RMK A01 T01640124  RH  078%=      5-min Rain = 0
KQU1 230028Z 01005KT 16/12 A3009 RMK A01 T01630123  RH  077%=      5-min Rain = 0
KQU1 230029Z 02004KT 16/12 A3009 RMK A01 T01630123  RH  077%=      5-min Rain = 0
KQU1 230030Z 01002KT 16/12 A3009 RMK A01 T01630123  RH  077%=      5-min Rain = 0
KQU1 230031Z 36002KT 16/12 A3009 RMK A01 T01630124  RH  077%=      5-min Rain = 0
KQU1 230032Z 36004KT 16/12 A3009 RMK A01 T01640124  RH  077%=      5-min Rain = 0
KQU1 230033Z 02002KT 16/12 A3009 RMK A01 T01640124  RH  077%=      5-min Rain = 0
KQU1 230034Z 02005KT 16/12 A3009 RMK A01 T01640123  RH  077%=      5-min Rain = 0
KQU1 230035Z 02003KT 16/12 A3009 RMK A01 T01630124  RH  077%=      5-min Rain = 0
KQU1 230036Z 03004KT 16/12 A3009 RMK A01 T01630124  RH  078%=      5-min Rain = 0
KQU1 230037Z 01005KT 16/12 A3009 RMK A01 T01630124  RH  078%=      5-min Rain = 0
KQU1 230038Z 03005KT 16/12 A3009 RMK A01 T01630124  RH  078%=      5-min Rain = 0
KQU1 230039Z 02005KT 16/12 A3009 RMK A01 T01620124  RH  078%=      5-min Rain = 0
KQU1 230040Z 02005KT 16/12 A3009 RMK A01 T01620124  RH  078%=      5-min Rain = 0.01
KQU1 230041Z 02005KT 16/13 A3009 RMK A01 T01620125  RH  079%=      5-min Rain = 0
KQU1 230042Z 02005KT 16/13 A3009 RMK A01 T01610125  RH  079%=      5-min Rain = 0
KQU1 230043Z 02007KT 16/13 A3009 RMK A01 T01610125  RH  079%=      5-min Rain = 0
KQU1 230044Z 03009KT 16/13 A3009 RMK A01 T01600125  RH  080%=      5-min Rain = 0.01
KQU1 230045Z 02007KT 16/13 A3009 RMK A01 T01600126  RH  081%=      5-min Rain = 0
KQU1 230046Z 03009KT 16/13 A3009 RMK A01 T01590126  RH  081%=      5-min Rain = 0
KQU1 230047Z 03008KT 16/13 A3009 RMK A01 T01580127  RH  082%=      5-min Rain = 0.01
KQU1 230048Z 03009KT 16/13 A3009 RMK A01 T01580127  RH  082%=      5-min Rain = 0
KQU1 230049Z 03007KT 16/13 A3009 RMK A01 T01570127  RH  082%=      5-min Rain = 0
KQU1 230050Z 03007KT 16/13 A3009 RMK A01 T01570129  RH  083%=      5-min Rain = 0.01
KQU1 230051Z 02008KT 16/13 A3009 RMK A01 T01560129  RH  084%=      5-min Rain = 0
KQU1 230052Z 02007KT 16/13 A3009 RMK A01 T01560129  RH  084%=      5-min Rain = 0
KQU1 230053Z 03007KT 16/13 A3009 RMK A01 T01550129  RH  084%=      5-min Rain = 0
KQU1 230054Z 03006KT 16/13 A3009 RMK A01 T01550129  RH  085%=      5-min Rain = 0
KQU1 230055Z 02005KT 15/13 A3009 RMK A01 T01540130  RH  085%=      5-min Rain = 0
KQU1 230056Z 03006KT 15/13 A3009 RMK A01 T01540130  RH  085%=      5-min Rain = 0
KQU1 230057Z 03007KT 15/13 A3009 RMK A01 T01540130  RH  086%=      5-min Rain = 0
KQU1 230058Z 02007KT 15/13 A3009 RMK A01 T01530130  RH  086%=      5-min Rain = 0
KQU1 230059Z 02008KT 15/13 A3008 RMK A01 T01530130  RH  086%=      5-min Rain = 0.01
KQU1 230100Z 02008KT 15/13 A3008 RMK A01 T01530130  RH  086%=      5-min Rain = 0
KQU1 230101Z 02006KT 15/13 A3008 RMK A01 T01520131  RH  087%=      5-min Rain = 0
KQU1 230102Z 02007KT 15/13 A3008 RMK A01 T01520131  RH  087%=      5-min Rain = 0
KQU1 230103Z 02009KT 15/13 A3008 RMK A01 T01520131  RH  087%=      5-min Rain = 0
KQU1 230104Z 03006KT 15/13 A3008 RMK A01 T01520131  RH  087%=      5-min Rain = 0
KQU1 230105Z 02008KT 15/13 A3008 RMK A01 T01510131  RH  088%=      5-min Rain = 0
KQU1 230106Z 02009KT 15/13 A3008 RMK A01 T01510131  RH  088%=      5-min Rain = 0
KQU1 230107Z 02008KT 15/13 A3007 RMK A01 T01510132  RH  088%=      5-min Rain = 0
KQU1 230108Z 02008KT 15/13 A3007 RMK A01 T01500131  RH  088%=      5-min Rain = 0.01
KQU1 230109Z 01009KT 15/13 A3006 RMK A01 T01500131  RH  088%=      5-min Rain = 0
KQU1 230110Z 01007G12KT 15/13 A3006 RMK A01 T01500131  RH  089%=      5-min Rain = 0
KQU1 230111Z 01009KT 15/13 A3005 RMK A01 T01490131  RH  089%=      5-min Rain = 0
KQU1 230112Z 00009G14KT 15/13 A3005 RMK A01 T01490131  RH  089%=      5-min Rain = 0
KQU1 230113Z 36010G15KT 15/13 A3004 RMK A01 T01480131  RH  090%=      5-min Rain = 0
KQU1 230114Z 01009KT 15/13 A3004 RMK A01 T01480131  RH  090%=      5-min Rain = 0
KQU1 230115Z 01008G13KT 15/13 A3004 RMK A01 T01470131  RH  090%=      5-min Rain = 0
KQU1 230116Z 00009G16KT 15/13 A3004 RMK A01 T01470131  RH  090%=      5-min Rain = 0
KQU1 230117Z 01009G16KT 15/13 A3003 RMK A01 T01460130  RH  090%=      5-min Rain = 0
KQU1 230118Z 36011G18KT 15/13 A3003 RMK A01 T01460130  RH  090%=      5-min Rain = 0
KQU1 230119Z 36013KT 15/13 A3004 RMK A01 T01460130  RH  090%=      5-min Rain = 0
KQU1 230120Z 36013KT 15/13 A3003 RMK A01 T01450130  RH  090%=      5-min Rain = 0
KQU1 230121Z 00013KT 15/13 A3003 RMK A01 T01450129  RH  090%=      5-min Rain = 0
KQU1 230122Z 35011G17KT 15/13 A3004 RMK A01 T01450129  RH  090%=      5-min Rain = 0
KQU1 230123Z 36010KT 15/13 A3004 RMK A01 T01450128  RH  090%=      5-min Rain = 0
KQU1 230124Z 36009G15KT 14/13 A3004 RMK A01 T01440128  RH  090%=      5-min Rain = 0
KQU1 230125Z 36009G14KT 14/13 A3004 RMK A01 T01440128  RH  090%=      5-min Rain = 0
KQU1 230126Z 01007G14KT 14/13 A3005 RMK A01 T01440128  RH  090%=      5-min Rain = 0
KQU1 230127Z 01007KT 14/13 A3005 RMK A01 T01440128  RH  090%=      5-min Rain = 0
KQU1 230128Z 35005KT 14/13 A3005 RMK A01 T01440129  RH  090%=      5-min Rain = 0
KQU1 230129Z 01008KT 14/13 A3005 RMK A01 T01440129  RH  091%=      5-min Rain = 0
KQU1 230130Z 35009KT 14/13 A3005 RMK A01 T01440129  RH  091%=      5-min Rain = 0
KQU1 230131Z 00009G14KT 14/13 A3004 RMK A01 T01440129  RH  091%=      5-min Rain = 0
KQU1 230132Z 35011G16KT 14/13 A3004 RMK A01 T01440129  RH  091%=      5-min Rain = 0
KQU1 230133Z 36011G16KT 14/13 A3004 RMK A01 T01440128  RH  090%=      5-min Rain = 0
KQU1 230134Z 36012G18KT 14/13 A3004 RMK A01 T01440128  RH  090%=      5-min Rain = 0
KQU1 230135Z 36011G16KT 14/13 A3003 RMK A01 T01440128  RH  090%=      5-min Rain = 0
KQU1 230136Z 35012KT 14/13 A3003 RMK A01 T01440128  RH  090%=      5-min Rain = 0
KQU1 230137Z 00011G19KT 14/13 A3003 RMK A01 T01440127  RH  090%=      5-min Rain = 0
KQU1 230138Z 00012G17KT 14/13 A3003 RMK A01 T01440127  RH  089%=      5-min Rain = 0
KQU1 230139Z 36012KT 14/13 A3003 RMK A01 T01440126  RH  089%=      5-min Rain = 0
KQU1 230140Z 01009KT 14/13 A3004 RMK A01 T01440126  RH  089%=      5-min Rain = 0
KQU1 230141Z 01012G21KT 14/13 A3003 RMK A01 T01440125  RH  089%=      5-min Rain = 0
KQU1 230142Z 00010G17KT 14/13 A3003 RMK A01 T01440125  RH  089%=      5-min Rain = 0
KQU1 230143Z 00012G17KT 14/13 A3003 RMK A01 T01440125  RH  088%=      5-min Rain = 0
KQU1 230144Z 36009G16KT 14/13 A3003 RMK A01 T01440125  RH  088%=      5-min Rain = 0
KQU1 230145Z 00013G19KT 14/12 A3003 RMK A01 T01440124  RH  088%=      5-min Rain = 0
KQU1 230146Z 36014KT 14/12 A3003 RMK A01 T01430124  RH  088%=      5-min Rain = 0
KQU1 230147Z 35013G19KT 14/12 A3003 RMK A01 T01430123  RH  088%=      5-min Rain = 0
KQU1 230148Z 00011G17KT 14/12 A3003 RMK A01 T01430123  RH  088%=      5-min Rain = 0
KQU1 230149Z 36011G17KT 14/12 A3003 RMK A01 T01430123  RH  088%=      5-min Rain = 0
KQU1 230150Z 01011G17KT 14/12 A3003 RMK A01 T01430123  RH  088%=      5-min Rain = 0
KQU1 230151Z 35009G16KT 14/12 A3003 RMK A01 T01430122  RH  088%=      5-min Rain = 0
KQU1 230152Z 01012G18KT 14/12 A3003 RMK A01 T01430122  RH  088%=      5-min Rain = 0
KQU1 230153Z 36009KT 14/12 A3003 RMK A01 T01420122  RH  088%=      5-min Rain = 0
KQU1 230154Z 35009G16KT 14/12 A3003 RMK A01 T01420122  RH  088%=      5-min Rain = 0
KQU1 230155Z 36015G20KT 14/12 A3003 RMK A01 T01420122  RH  088%=      5-min Rain = 0
KQU1 230156Z 36012G17KT 14/12 A3003 RMK A01 T01420122  RH  088%=      5-min Rain = 0
KQU1 230157Z 36011G16KT 14/12 A3003 RMK A01 T01420122  RH  088%=      5-min Rain = 0
KQU1 230158Z 00010G15KT 14/12 A3003 RMK A01 T01420122  RH  088%=      5-min Rain = 0
KQU1 230159Z 00011KT 14/12 A3003 RMK A01 T01420121  RH  087%=      5-min Rain = 0
KQU1 230200Z 01008G13KT 14/12 A3003 RMK A01 T01420122  RH  088%=      5-min Rain = 0
KQU1 230201Z 36011G17KT 14/12 A3004 RMK A01 T01420122  RH  088%=      5-min Rain = 0
KQU1 230202Z 00006G11KT 14/12 A3004 RMK A01 T01420122  RH  088%=      5-min Rain = 0
KQU1 230203Z 01007KT 14/12 A3004 RMK A01 T01420122  RH  088%=      5-min Rain = 0
KQU1 230204Z 35007KT 14/12 A3004 RMK A01 T01420122  RH  088%=      5-min Rain = 0
KQU1 230205Z 00009G15KT 14/12 A3004 RMK A01 T01420122  RH  087%=      5-min Rain = 0
KQU1 230206Z 36007KT 14/12 A3004 RMK A01 T01420122  RH  088%=      5-min Rain = 0
KQU1 230207Z 36008G14KT 14/12 A3004 RMK A01 T01420122  RH  088%=      5-min Rain = 0
KQU1 230208Z 35007G13KT 14/12 A3004 RMK A01 T01430122  RH  088%=      5-min Rain = 0
KQU1 230209Z 00007G13KT 14/12 A3004 RMK A01 T01430123  RH  088%=      5-min Rain = 0
KQU1 230210Z 36011KT 14/12 A3004 RMK A01 T01430122  RH  087%=      5-min Rain = 0
KQU1 230211Z 36007G12KT 14/12 A3004 RMK A01 T01430122  RH  087%=      5-min Rain = 0
KQU1 230212Z 35008KT 14/12 A3004 RMK A01 T01430122  RH  087%=      5-min Rain = 0
KQU1 230213Z 35008KT 14/12 A3004 RMK A01 T01430122  RH  087%=      5-min Rain = 0
KQU1 230214Z 35010KT 14/12 A3004 RMK A01 T01430122  RH  087%=      5-min Rain = 0
KQU1 230215Z 35009KT 14/12 A3005 RMK A01 T01430122  RH  087%=      5-min Rain = 0
KQU1 230216Z 36007KT 14/12 A3005 RMK A01 T01430122  RH  087%=      5-min Rain = 0
KQU1 230217Z 36007KT 14/12 A3005 RMK A01 T01430122  RH  087%=      5-min Rain = 0
KQU1 230218Z 35008KT 14/12 A3005 RMK A01 T01430122  RH  087%=      5-min Rain = 0
KQU1 230219Z 35005KT 14/12 A3005 RMK A01 T01430122  RH  087%=      5-min Rain = 0
KQU1 230220Z 35006KT 14/12 A3005 RMK A01 T01430122  RH  087%=      5-min Rain = 0
KQU1 230221Z 35008KT 14/12 A3006 RMK A01 T01430122  RH  087%=      5-min Rain = 0
KQU1 230222Z 35007KT 14/12 A3006 RMK A01 T01430122  RH  087%=      5-min Rain = 0
KQU1 230223Z 35008G13KT 14/12 A3006 RMK A01 T01430122  RH  087%=      5-min Rain = 0
KQU1 230224Z 01005KT 14/12 A3006 RMK A01 T01440122  RH  087%=      5-min Rain = 0
KQU1 230225Z 02006KT 14/12 A3006 RMK A01 T01440122  RH  087%=      5-min Rain = 0
KQU1 230226Z 35004G9KT 14/12 A3007 RMK A01 T01440122  RH  087%=      5-min Rain = 0
KQU1 230227Z 00004KT 14/12 A3007 RMK A01 T01440122  RH  087%=      5-min Rain = 0
KQU1 230228Z 01003KT 14/12 A3007 RMK A01 T01440122  RH  087%=      5-min Rain = 0
KQU1 230229Z 01003KT 14/12 A3007 RMK A01 T01440122  RH  087%=      5-min Rain = 0
KQU1 230230Z 00005KT 14/12 A3007 RMK A01 T01440122  RH  087%=      5-min Rain = 0
KQU1 230231Z 36005KT 14/12 A3007 RMK A01 T01440122  RH  087%=      5-min Rain = 0
KQU1 230232Z 35007KT 14/12 A3007 RMK A01 T01440122  RH  087%=      5-min Rain = 0
KQU1 230233Z 01007KT 14/12 A3007 RMK A01 T01440121  RH  086%=      5-min Rain = 0
KQU1 230234Z 35005KT 14/12 A3007 RMK A01 T01440121  RH  086%=      5-min Rain = 0
KQU1 230235Z 36007KT 14/12 A3007 RMK A01 T01440122  RH  086%=      5-min Rain = 0
KQU1 230236Z 00006KT 14/12 A3007 RMK A01 T01440121  RH  086%=      5-min Rain = 0
KQU1 230237Z 01006KT 14/12 A3008 RMK A01 T01440121  RH  086%=      5-min Rain = 0
KQU1 230238Z 01004KT 14/12 A3008 RMK A01 T01440121  RH  086%=      5-min Rain = 0
KQU1 230239Z 35003KT 14/12 A3008 RMK A01 T01440121  RH  086%=      5-min Rain = 0
KQU1 230240Z 36002KT 14/12 A3009 RMK A01 T01440121  RH  086%=      5-min Rain = 0
KQU1 230241Z 03002KT 14/12 A3009 RMK A01 T01440121  RH  086%=      5-min Rain = 0
KQU1 230242Z 02005KT 14/12 A301 RMK A01 T01440120  RH  085%=      5-min Rain = 0
KQU1 230243Z 06003KT 14/12 A301 RMK A01 T01440121  RH  086%=      5-min Rain = 0
KQU1 230244Z 04003KT 14/12 A301 RMK A01 T01440121  RH  086%=      5-min Rain = 0
KQU1 230245Z 04002KT 14/12 A301 RMK A01 T01440121  RH  086%=      5-min Rain = 0.01
KQU1 230246Z 01003KT 14/12 A301 RMK A01 T01440121  RH  086%=      5-min Rain = 0
KQU1 230247Z 36004KT 14/12 A301 RMK A01 T01440121  RH  086%=      5-min Rain = 0
KQU1 230248Z 35004KT 14/12 A301 RMK A01 T01440122  RH  087%=      5-min Rain = 0
KQU1 230249Z 35004KT 14/12 A3009 RMK A01 T01430122  RH  087%=      5-min Rain = 0
KQU1 230250Z 35007KT 14/12 A3009 RMK A01 T01430122  RH  087%=      5-min Rain = 0
KQU1 230251Z 36008KT 14/12 A3008 RMK A01 T01430122  RH  088%=      5-min Rain = 0
KQU1 230252Z 35009G14KT 14/12 A3007 RMK A01 T01420123  RH  089%=      5-min Rain = 0.01
KQU1 230253Z 35009G14KT 14/12 A3005 RMK A01 T01410124  RH  089%=      5-min Rain = 0
KQU1 230254Z 36012G18KT 14/12 A3004 RMK A01 T01400124  RH  090%=      5-min Rain = 0
KQU1 230255Z 00011KT 14/12 A3004 RMK A01 T01390123  RH  090%=      5-min Rain = 0.01
KQU1 230256Z 35011G17KT 14/12 A3004 RMK A01 T01390123  RH  090%=      5-min Rain = 0
KQU1 230257Z 35008G14KT 14/12 A3006 RMK A01 T01380123  RH  090%=      5-min Rain = 0
KQU1 230258Z 02005KT 14/12 A3008 RMK A01 T01380122  RH  090%=      5-min Rain = 0.01
KQU1 230259Z 04004KT 14/12 A3009 RMK A01 T01370122  RH  090%=      5-min Rain = 0
KQU1 230300Z 02004KT 14/12 A3009 RMK A01 T01370122  RH  090%=      5-min Rain = 0
KQU1 230301Z 01005KT 14/12 A3008 RMK A01 T01370122  RH  090%=      5-min Rain = 0
KQU1 230302Z 35007KT 14/12 A3008 RMK A01 T01370122  RH  091%=      5-min Rain = 0.01
KQU1 230303Z 35007G12KT 14/12 A3008 RMK A01 T01370123  RH  091%=      5-min Rain = 0
KQU1 230304Z 35007KT 14/12 A3008 RMK A01 T01370123  RH  091%=      5-min Rain = 0
KQU1 230305Z 35005KT 14/12 A3008 RMK A01 T01360123  RH  091%=      5-min Rain = 0
KQU1 230306Z 35007KT 14/12 A3008 RMK A01 T01360122  RH  091%=      5-min Rain = 0.01
KQU1 230307Z 35009KT 14/12 A3008 RMK A01 T01360122  RH  091%=      5-min Rain = 0
KQU1 230308Z 35007KT 14/12 A3008 RMK A01 T01350122  RH  092%=      5-min Rain = 0
KQU1 230309Z 35009KT 14/12 A3008 RMK A01 T01350122  RH  092%=      5-min Rain = 0.01
KQU1 230310Z 35008G13KT 14/12 A3008 RMK A01 T01350122  RH  092%=      5-min Rain = 0
KQU1 230311Z 36007KT 14/12 A3009 RMK A01 T01350122  RH  092%=      5-min Rain = 0
KQU1 230312Z 36006KT 14/12 A3009 RMK A01 T01350122  RH  092%=      5-min Rain = 0
KQU1 230313Z 35007KT 13/12 A3009 RMK A01 T01340122  RH  092%=      5-min Rain = 0
KQU1 230314Z 35004KT 13/12 A3009 RMK A01 T01340122  RH  092%=      5-min Rain = 0
KQU1 230315Z 02004KT 13/12 A3009 RMK A01 T01340122  RH  092%=      5-min Rain = 0
KQU1 230316Z 36005KT 13/12 A3009 RMK A01 T01340122  RH  092%=      5-min Rain = 0
KQU1 230317Z 35005KT 13/12 A3009 RMK A01 T01340122  RH  092%=      5-min Rain = 0
KQU1 230318Z 36005KT 13/12 A3009 RMK A01 T01340122  RH  093%=      5-min Rain = 0
KQU1 230319Z 35006KT 13/12 A3009 RMK A01 T01340122  RH  093%=      5-min Rain = 0
KQU1 230320Z 35006KT 13/12 A3009 RMK A01 T01340122  RH  093%=      5-min Rain = 0.01
KQU1 230321Z 34006KT 13/12 A3009 RMK A01 T01330122  RH  093%=      5-min Rain = 0
KQU1 230322Z 34007KT 13/12 A3009 RMK A01 T01330122  RH  093%=      5-min Rain = 0
KQU1 230323Z 34008KT 13/12 A3009 RMK A01 T01330122  RH  093%=      5-min Rain = 0
KQU1 230324Z 35008KT 13/12 A3009 RMK A01 T01330121  RH  093%=      5-min Rain = 0
KQU1 230325Z 34007KT 13/12 A3009 RMK A01 T01330121  RH  093%=      5-min Rain = 0
KQU1 230326Z 34010KT 13/12 A301 RMK A01 T01330121  RH  093%=      5-min Rain = 0
KQU1 230327Z 34010KT 13/12 A301 RMK A01 T01330121  RH  092%=      5-min Rain = 0
KQU1 230328Z 34012G17KT 13/12 A301 RMK A01 T01340120  RH  091%=      5-min Rain = 0
KQU1 230329Z 36010KT 13/12 A301 RMK A01 T01340120  RH  091%=      5-min Rain = 0
KQU1 230330Z 35006KT 14/12 A301 RMK A01 T01350120  RH  091%=      5-min Rain = 0
KQU1 230331Z 35007KT 14/12 A301 RMK A01 T01350121  RH  091%=      5-min Rain = 0
KQU1 230332Z 36003KT 14/12 A301 RMK A01 T01350120  RH  091%=      5-min Rain = 0
KQU1 230333Z 01004KT 14/12 A301 RMK A01 T01350121  RH  091%=      5-min Rain = 0
KQU1 230334Z 00004KT 14/12 A301 RMK A01 T01350121  RH  091%=      5-min Rain = 0
KQU1 230335Z 01003KT 14/12 A301 RMK A01 T01350121  RH  091%=      5-min Rain = 0
KQU1 230336Z 00005KT 14/12 A301 RMK A01 T01350121  RH  091%=      5-min Rain = 0
KQU1 230337Z 35005KT 14/12 A301 RMK A01 T01350121  RH  091%=      5-min Rain = 0
KQU1 230338Z 35004KT 14/12 A3011 RMK A01 T01350121  RH  091%=      5-min Rain = 0
KQU1 230339Z 36004KT 14/12 A3011 RMK A01 T01350122  RH  092%=      5-min Rain = 0
KQU1 230340Z 35004KT 14/12 A3011 RMK A01 T01350121  RH  092%=      5-min Rain = 0
KQU1 230341Z 35006KT 13/12 A301 RMK A01 T01340121  RH  092%=      5-min Rain = 0.01
KQU1 230342Z 36007KT 13/12 A301 RMK A01 T01340121  RH  092%=      5-min Rain = 0
KQU1 230343Z 35009KT 13/12 A301 RMK A01 T01340121  RH  092%=      5-min Rain = 0
KQU1 230344Z 00009KT 13/12 A3009 RMK A01 T01340121  RH  092%=      5-min Rain = 0.01
KQU1 230345Z 35009KT 13/12 A3009 RMK A01 T01330120  RH  092%=      5-min Rain = 0
KQU1 230346Z 36009G14KT 13/12 A3009 RMK A01 T01330120  RH  092%=      5-min Rain = 0.01
KQU1 230347Z 36007KT 13/12 A3009 RMK A01 T01330120  RH  092%=      5-min Rain = 0
KQU1 230348Z 00007KT 13/12 A3009 RMK A01 T01330121  RH  092%=      5-min Rain = 0.01
KQU1 230349Z 36006KT 13/12 A3009 RMK A01 T01330121  RH  092%=      5-min Rain = 0
KQU1 230350Z 34009KT 13/12 A3009 RMK A01 T01320120  RH  092%=      5-min Rain = 0
KQU1 230351Z 36007KT 13/12 A3009 RMK A01 T01320120  RH  092%=      5-min Rain = 0.01
KQU1 230352Z 35006KT 13/12 A3009 RMK A01 T01320120  RH  093%=      5-min Rain = 0
KQU1 230353Z 36010G15KT 13/12 A3008 RMK A01 T01320120  RH  093%=      5-min Rain = 0
KQU1 230354Z 36010G15KT 13/12 A3008 RMK A01 T01320120  RH  093%=      5-min Rain = 0.01
KQU1 230355Z 36012KT 13/12 A3007 RMK A01 T01310120  RH  093%=      5-min Rain = 0
KQU1 230356Z 36009KT 13/12 A3007 RMK A01 T01310120  RH  093%=      5-min Rain = 0
KQU1 230357Z 35007KT 13/12 A3008 RMK A01 T01310121  RH  093%=      5-min Rain = 0.01
KQU1 230358Z 34007G12KT 13/12 A3008 RMK A01 T01310120  RH  093%=      5-min Rain = 0
KQU1 230359Z 35006KT 13/12 A3009 RMK A01 T01300120  RH  093%=      5-min Rain = 0
KQU1 230400Z 35006KT 13/12 A3009 RMK A01 T01300120  RH  094%=      5-min Rain = 0
KQU1 230401Z 34007KT 13/12 A3009 RMK A01 T01300120  RH  094%=      5-min Rain = 0
KQU1 230402Z 35007KT 13/12 A3009 RMK A01 T01300120  RH  094%=      5-min Rain = 0
KQU1 230403Z 35006KT 13/12 A3009 RMK A01 T01300120  RH  094%=      5-min Rain = 0.01
KQU1 230404Z 35008KT 13/12 A3009 RMK A01 T01300120  RH  094%=      5-min Rain = 0
KQU1 230405Z 35007KT 13/12 A3009 RMK A01 T01300121  RH  094%=      5-min Rain = 0
KQU1 230406Z 35007KT 13/12 A3009 RMK A01 T01300121  RH  094%=      5-min Rain = 0
KQU1 230407Z 35007G12KT 13/12 A3009 RMK A01 T01300121  RH  094%=      5-min Rain = 0.01
KQU1 230408Z 35007G12KT 13/12 A3009 RMK A01 T01300121  RH  094%=      5-min Rain = 0
KQU1 230409Z 36007KT 13/12 A3009 RMK A01 T01300121  RH  094%=      5-min Rain = 0
KQU1 230410Z 35010KT 13/12 A3009 RMK A01 T01300121  RH  094%=      5-min Rain = 0
KQU1 230411Z 35007KT 13/12 A3009 RMK A01 T01300120  RH  094%=      5-min Rain = 0
KQU1 230412Z 35007KT 13/12 A3009 RMK A01 T01300120  RH  094%=      5-min Rain = 0
KQU1 230413Z 35009G14KT 13/12 A3009 RMK A01 T01290120  RH  094%=      5-min Rain = 0
KQU1 230414Z 36009KT 13/12 A3009 RMK A01 T01290121  RH  094%=      5-min Rain = 0
KQU1 230415Z 35008G14KT 13/12 A3009 RMK A01 T01290121  RH  094%=      5-min Rain = 0
KQU1 230416Z 35009G14KT 13/12 A3009 RMK A01 T01290120  RH  094%=      5-min Rain = 0
KQU1 230417Z 35008KT 13/12 A3009 RMK A01 T01290120  RH  094%=      5-min Rain = 0
KQU1 230418Z 35009KT 13/12 A3009 RMK A01 T01290120  RH  094%=      5-min Rain = 0
KQU1 230419Z 35006KT 13/12 A3009 RMK A01 T01290120  RH  094%=      5-min Rain = 0
KQU1 230420Z 35008KT 13/12 A3009 RMK A01 T01300120  RH  094%=      5-min Rain = 0
KQU1 230421Z 36008KT 13/12 A3009 RMK A01 T01300120  RH  094%=      5-min Rain = 0
KQU1 230422Z 34007KT 13/12 A3009 RMK A01 T01300120  RH  094%=      5-min Rain = 0
KQU1 230423Z 35009KT 13/12 A3009 RMK A01 T01300120  RH  094%=      5-min Rain = 0
KQU1 230424Z 35008KT 13/12 A3009 RMK A01 T01300121  RH  094%=      5-min Rain = 0
KQU1 230425Z 35011G17KT 13/12 A3009 RMK A01 T01300120  RH  094%=      5-min Rain = 0
KQU1 230426Z 35011KT 13/12 A3009 RMK A01 T01300120  RH  094%=      5-min Rain = 0
KQU1 230427Z 35011G16KT 13/12 A3009 RMK A01 T01300120  RH  093%=      5-min Rain = 0
KQU1 230428Z 34009G14KT 13/12 A3009 RMK A01 T01300120  RH  093%=      5-min Rain = 0
KQU1 230429Z 35011G18KT 13/12 A3009 RMK A01 T01300120  RH  093%=      5-min Rain = 0
KQU1 230430Z 35009G16KT 13/12 A3008 RMK A01 T01300120  RH  093%=      5-min Rain = 0
KQU1 230431Z 35010G16KT 13/12 A3008 RMK A01 T01300120  RH  093%=      5-min Rain = 0
KQU1 230432Z 35010KT 13/12 A3008 RMK A01 T01300120  RH  093%=      5-min Rain = 0
KQU1 230433Z 35009G14KT 13/12 A3008 RMK A01 T01300120  RH  093%=      5-min Rain = 0
KQU1 230434Z 36009KT 13/12 A3008 RMK A01 T01310120  RH  093%=      5-min Rain = 0
KQU1 230435Z 36007G12KT 13/12 A3008 RMK A01 T01300120  RH  093%=      5-min Rain = 0
KQU1 230436Z 36008G13KT 13/12 A3008 RMK A01 T01300120  RH  093%=      5-min Rain = 0
KQU1 230437Z 35010KT 13/12 A3008 RMK A01 T01300120  RH  093%=      5-min Rain = 0
KQU1 230438Z 35008KT 13/12 A3008 RMK A01 T01300120  RH  094%=      5-min Rain = 0
KQU1 230439Z 35007G12KT 13/12 A3008 RMK A01 T01300120  RH  094%=      5-min Rain = 0
KQU1 230440Z 35009KT 13/12 A3008 RMK A01 T01300120  RH  094%=      5-min Rain = 0
KQU1 230441Z 35011KT 13/12 A3007 RMK A01 T01300120  RH  094%=      5-min Rain = 0
KQU1 230442Z 35009G14KT 13/12 A3007 RMK A01 T01300120  RH  094%=      5-min Rain = 0
KQU1 230443Z 35010G15KT 13/12 A3007 RMK A01 T01300120  RH  094%=      5-min Rain = 0
KQU1 230444Z 36009KT 13/12 A3007 RMK A01 T01300121  RH  094%=      5-min Rain = 0
KQU1 230445Z 36010G16KT 13/12 A3007 RMK A01 T01300121  RH  094%=      5-min Rain = 0
KQU1 230446Z 35011G17KT 13/12 A3007 RMK A01 T01300120  RH  094%=      5-min Rain = 0
KQU1 230447Z 35012KT 13/12 A3007 RMK A01 T01300120  RH  094%=      5-min Rain = 0
KQU1 230448Z 00012KT 13/12 A3007 RMK A01 T01300120  RH  094%=      5-min Rain = 0
KQU1 230449Z 35011G16KT 13/12 A3007 RMK A01 T01300120  RH  094%=      5-min Rain = 0
KQU1 230450Z 35008KT 13/12 A3007 RMK A01 T01300120  RH  094%=      5-min Rain = 0
KQU1 230451Z 36008G15KT 13/12 A3007 RMK A01 T01300120  RH  094%=      5-min Rain = 0
KQU1 230452Z 35010G16KT 13/12 A3007 RMK A01 T01300121  RH  094%=      5-min Rain = 0
KQU1 230453Z 36010KT 13/12 A3007 RMK A01 T01300120  RH  094%=      5-min Rain = 0
KQU1 230454Z 35008KT 13/12 A3007 RMK A01 T01300120  RH  094%=      5-min Rain = 0
KQU1 230455Z 35007KT 13/12 A3007 RMK A01 T01300120  RH  094%=      5-min Rain = 0
KQU1 230456Z 35009G15KT 13/12 A3007 RMK A01 T01300120  RH  094%=      5-min Rain = 0
KQU1 230457Z 36010G16KT 13/12 A3007 RMK A01 T01300120  RH  094%=      5-min Rain = 0
KQU1 230458Z 35010KT 13/12 A3007 RMK A01 T01300120  RH  093%=      5-min Rain = 0
KQU1 230459Z 35011KT 13/12 A3007 RMK A01 T01310120  RH  093%=      5-min Rain = 0

Page generated in 0.1221 seconds.